<?xml version="1.0" encoding="UTF-8" standalone="no" ?>
<gpx xmlns="http://www.topografix.com/GPX/1/1" xmlns:xsi="http://www.w3.org/2001/XMLSchema-instance" xsi:schemaLocation="http://www.topografix.com/GPX/1/1 http://www.topografix.com/GPX/1/1/gpx.xsd" version="1.1" creator="VisuGPX - https://www.visugpx.com">
  <metadata>
    <name>Tête Pelouse (74_Flaine)</name>
    <desc><![CDATA[Départ de la station de Flaine, montée par les pistes jusqu'aux Verdets.
Descente par les pistes du Bellacha.
Photos et commentaires sur : [url]http://www.photosrandos.fr[/url]]]></desc>
  </metadata>
  <trk>
    <name><![CDATA[24 nov. 2019 à 09:20:57]]></name>
    <cmt><![CDATA[24 nov. 2019 à 09:20:57]]></cmt>
    <trkseg>
      <trkpt lat="46.0067" lon="6.69607">
        <ele>1675</ele>
        <time>2019-11-24T08:20:57Z</time>
      </trkpt>
      <trkpt lat="46.0067" lon="6.69607">
        <ele>1675</ele>
        <time>2019-11-24T08:20:58Z</time>
      </trkpt>
      <trkpt lat="46.00667" lon="6.69613">
        <ele>1679</ele>
        <time>2019-11-24T08:25:28Z</time>
      </trkpt>
      <trkpt lat="46.00665" lon="6.69627">
        <ele>1674</ele>
        <time>2019-11-24T08:25:37Z</time>
      </trkpt>
      <trkpt lat="46.00662" lon="6.69635">
        <ele>1677</ele>
        <time>2019-11-24T08:25:45Z</time>
      </trkpt>
      <trkpt lat="46.0066" lon="6.6964">
        <ele>1677</ele>
        <time>2019-11-24T08:25:56Z</time>
      </trkpt>
      <trkpt lat="46.00654" lon="6.69641">
        <ele>1677</ele>
        <time>2019-11-24T08:26:02Z</time>
      </trkpt>
      <trkpt lat="46.00649" lon="6.69642">
        <ele>1678</ele>
        <time>2019-11-24T08:26:19Z</time>
      </trkpt>
      <trkpt lat="46.00645" lon="6.69647">
        <ele>1675</ele>
        <time>2019-11-24T08:26:56Z</time>
      </trkpt>
      <trkpt lat="46.00641" lon="6.69664">
        <ele>1677</ele>
        <time>2019-11-24T08:28:14Z</time>
      </trkpt>
      <trkpt lat="46.00638" lon="6.69671">
        <ele>1679</ele>
        <time>2019-11-24T08:28:19Z</time>
      </trkpt>
      <trkpt lat="46.00634" lon="6.69681">
        <ele>1677</ele>
        <time>2019-11-24T08:28:26Z</time>
      </trkpt>
      <trkpt lat="46.0063" lon="6.69689">
        <ele>1678</ele>
        <time>2019-11-24T08:28:31Z</time>
      </trkpt>
      <trkpt lat="46.00627" lon="6.69695">
        <ele>1676</ele>
        <time>2019-11-24T08:28:35Z</time>
      </trkpt>
      <trkpt lat="46.00624" lon="6.69701">
        <ele>1678</ele>
        <time>2019-11-24T08:28:39Z</time>
      </trkpt>
      <trkpt lat="46.0062" lon="6.69706">
        <ele>1680</ele>
        <time>2019-11-24T08:28:47Z</time>
      </trkpt>
      <trkpt lat="46.00616" lon="6.69711">
        <ele>1679</ele>
        <time>2019-11-24T08:28:54Z</time>
      </trkpt>
      <trkpt lat="46.00614" lon="6.69717">
        <ele>1678</ele>
        <time>2019-11-24T08:28:58Z</time>
      </trkpt>
      <trkpt lat="46.00608" lon="6.6973">
        <ele>1680</ele>
        <time>2019-11-24T08:29:13Z</time>
      </trkpt>
      <trkpt lat="46.00599" lon="6.69741">
        <ele>1684</ele>
        <time>2019-11-24T08:29:27Z</time>
      </trkpt>
      <trkpt lat="46.00595" lon="6.69749">
        <ele>1684</ele>
        <time>2019-11-24T08:29:39Z</time>
      </trkpt>
      <trkpt lat="46.00591" lon="6.69756">
        <ele>1686</ele>
        <time>2019-11-24T08:29:51Z</time>
      </trkpt>
      <trkpt lat="46.00587" lon="6.69759">
        <ele>1687</ele>
        <time>2019-11-24T08:30:01Z</time>
      </trkpt>
      <trkpt lat="46.00584" lon="6.69764">
        <ele>1685</ele>
        <time>2019-11-24T08:30:15Z</time>
      </trkpt>
      <trkpt lat="46.00582" lon="6.69771">
        <ele>1686</ele>
        <time>2019-11-24T08:30:21Z</time>
      </trkpt>
      <trkpt lat="46.00581" lon="6.6978">
        <ele>1689</ele>
        <time>2019-11-24T08:30:30Z</time>
      </trkpt>
      <trkpt lat="46.0058" lon="6.69787">
        <ele>1689</ele>
        <time>2019-11-24T08:30:35Z</time>
      </trkpt>
      <trkpt lat="46.0058" lon="6.69795">
        <ele>1692</ele>
        <time>2019-11-24T08:30:40Z</time>
      </trkpt>
      <trkpt lat="46.00579" lon="6.69801">
        <ele>1690</ele>
        <time>2019-11-24T08:30:48Z</time>
      </trkpt>
      <trkpt lat="46.0058" lon="6.69809">
        <ele>1692</ele>
        <time>2019-11-24T08:30:58Z</time>
      </trkpt>
      <trkpt lat="46.00573" lon="6.69826">
        <ele>1692</ele>
        <time>2019-11-24T08:31:10Z</time>
      </trkpt>
      <trkpt lat="46.00573" lon="6.69833">
        <ele>1690</ele>
        <time>2019-11-24T08:31:14Z</time>
      </trkpt>
      <trkpt lat="46.00567" lon="6.69852">
        <ele>1690</ele>
        <time>2019-11-24T08:31:31Z</time>
      </trkpt>
      <trkpt lat="46.00565" lon="6.69858">
        <ele>1690</ele>
        <time>2019-11-24T08:31:36Z</time>
      </trkpt>
      <trkpt lat="46.00562" lon="6.69871">
        <ele>1690</ele>
        <time>2019-11-24T08:31:44Z</time>
      </trkpt>
      <trkpt lat="46.00558" lon="6.69884">
        <ele>1689</ele>
        <time>2019-11-24T08:31:52Z</time>
      </trkpt>
      <trkpt lat="46.00558" lon="6.69891">
        <ele>1689</ele>
        <time>2019-11-24T08:31:56Z</time>
      </trkpt>
      <trkpt lat="46.00556" lon="6.69903">
        <ele>1690</ele>
        <time>2019-11-24T08:32:07Z</time>
      </trkpt>
      <trkpt lat="46.00555" lon="6.69909">
        <ele>1693</ele>
        <time>2019-11-24T08:32:12Z</time>
      </trkpt>
      <trkpt lat="46.0055" lon="6.69923">
        <ele>1697</ele>
        <time>2019-11-24T08:32:29Z</time>
      </trkpt>
      <trkpt lat="46.0055" lon="6.69934">
        <ele>1699</ele>
        <time>2019-11-24T08:32:43Z</time>
      </trkpt>
      <trkpt lat="46.00549" lon="6.69944">
        <ele>1700</ele>
        <time>2019-11-24T08:32:53Z</time>
      </trkpt>
      <trkpt lat="46.0055" lon="6.69952">
        <ele>1699</ele>
        <time>2019-11-24T08:32:59Z</time>
      </trkpt>
      <trkpt lat="46.00546" lon="6.69973">
        <ele>1696</ele>
        <time>2019-11-24T08:33:25Z</time>
      </trkpt>
      <trkpt lat="46.00544" lon="6.6998">
        <ele>1697</ele>
        <time>2019-11-24T08:33:29Z</time>
      </trkpt>
      <trkpt lat="46.00543" lon="6.69986">
        <ele>1697</ele>
        <time>2019-11-24T08:33:34Z</time>
      </trkpt>
      <trkpt lat="46.00541" lon="6.70002">
        <ele>1700</ele>
        <time>2019-11-24T08:33:52Z</time>
      </trkpt>
      <trkpt lat="46.00539" lon="6.70017">
        <ele>1701</ele>
        <time>2019-11-24T08:34:04Z</time>
      </trkpt>
      <trkpt lat="46.00542" lon="6.70034">
        <ele>1703</ele>
        <time>2019-11-24T08:34:18Z</time>
      </trkpt>
      <trkpt lat="46.0054" lon="6.70042">
        <ele>1709</ele>
        <time>2019-11-24T08:34:32Z</time>
      </trkpt>
      <trkpt lat="46.00537" lon="6.70048">
        <ele>1709</ele>
        <time>2019-11-24T08:34:45Z</time>
      </trkpt>
      <trkpt lat="46.00531" lon="6.70056">
        <ele>1709</ele>
        <time>2019-11-24T08:34:56Z</time>
      </trkpt>
      <trkpt lat="46.0053" lon="6.70066">
        <ele>1709</ele>
        <time>2019-11-24T08:35:04Z</time>
      </trkpt>
      <trkpt lat="46.00525" lon="6.70074">
        <ele>1712</ele>
        <time>2019-11-24T08:35:17Z</time>
      </trkpt>
      <trkpt lat="46.00529" lon="6.70088">
        <ele>1718</ele>
        <time>2019-11-24T08:35:44Z</time>
      </trkpt>
      <trkpt lat="46.00531" lon="6.701">
        <ele>1718</ele>
        <time>2019-11-24T08:35:55Z</time>
      </trkpt>
      <trkpt lat="46.00537" lon="6.70109">
        <ele>1723</ele>
        <time>2019-11-24T08:36:11Z</time>
      </trkpt>
      <trkpt lat="46.0054" lon="6.70116">
        <ele>1721</ele>
        <time>2019-11-24T08:36:18Z</time>
      </trkpt>
      <trkpt lat="46.0054" lon="6.70123">
        <ele>1721</ele>
        <time>2019-11-24T08:36:23Z</time>
      </trkpt>
      <trkpt lat="46.00541" lon="6.7013">
        <ele>1722</ele>
        <time>2019-11-24T08:36:30Z</time>
      </trkpt>
      <trkpt lat="46.00541" lon="6.70141">
        <ele>1724</ele>
        <time>2019-11-24T08:36:40Z</time>
      </trkpt>
      <trkpt lat="46.00543" lon="6.70153">
        <ele>1724</ele>
        <time>2019-11-24T08:36:59Z</time>
      </trkpt>
      <trkpt lat="46.0054" lon="6.70158">
        <ele>1728</ele>
        <time>2019-11-24T08:37:12Z</time>
      </trkpt>
      <trkpt lat="46.00537" lon="6.70165">
        <ele>1726</ele>
        <time>2019-11-24T08:37:17Z</time>
      </trkpt>
      <trkpt lat="46.00537" lon="6.70173">
        <ele>1721</ele>
        <time>2019-11-24T08:37:31Z</time>
      </trkpt>
      <trkpt lat="46.00535" lon="6.70183">
        <ele>1726</ele>
        <time>2019-11-24T08:37:43Z</time>
      </trkpt>
      <trkpt lat="46.00534" lon="6.7019">
        <ele>1727</ele>
        <time>2019-11-24T08:37:47Z</time>
      </trkpt>
      <trkpt lat="46.00529" lon="6.70188">
        <ele>1735</ele>
        <time>2019-11-24T08:37:57Z</time>
      </trkpt>
      <trkpt lat="46.00527" lon="6.70201">
        <ele>1730</ele>
        <time>2019-11-24T08:38:14Z</time>
      </trkpt>
      <trkpt lat="46.00523" lon="6.70206">
        <ele>1732</ele>
        <time>2019-11-24T08:38:28Z</time>
      </trkpt>
      <trkpt lat="46.00522" lon="6.70212">
        <ele>1735</ele>
        <time>2019-11-24T08:38:32Z</time>
      </trkpt>
      <trkpt lat="46.00523" lon="6.70219">
        <ele>1740</ele>
        <time>2019-11-24T08:38:40Z</time>
      </trkpt>
      <trkpt lat="46.00518" lon="6.70224">
        <ele>1734</ele>
        <time>2019-11-24T08:38:52Z</time>
      </trkpt>
      <trkpt lat="46.00513" lon="6.7023">
        <ele>1738</ele>
        <time>2019-11-24T08:39:34Z</time>
      </trkpt>
      <trkpt lat="46.00512" lon="6.70238">
        <ele>1739</ele>
        <time>2019-11-24T08:39:40Z</time>
      </trkpt>
      <trkpt lat="46.00511" lon="6.70245">
        <ele>1734</ele>
        <time>2019-11-24T08:39:44Z</time>
      </trkpt>
      <trkpt lat="46.00505" lon="6.7025">
        <ele>1739</ele>
        <time>2019-11-24T08:39:57Z</time>
      </trkpt>
      <trkpt lat="46.00507" lon="6.70261">
        <ele>1737</ele>
        <time>2019-11-24T08:40:15Z</time>
      </trkpt>
      <trkpt lat="46.00501" lon="6.70274">
        <ele>1744</ele>
        <time>2019-11-24T08:40:31Z</time>
      </trkpt>
      <trkpt lat="46.00497" lon="6.70288">
        <ele>1748</ele>
        <time>2019-11-24T08:40:51Z</time>
      </trkpt>
      <trkpt lat="46.00496" lon="6.70295">
        <ele>1748</ele>
        <time>2019-11-24T08:41:03Z</time>
      </trkpt>
      <trkpt lat="46.00496" lon="6.70303">
        <ele>1749</ele>
        <time>2019-11-24T08:41:11Z</time>
      </trkpt>
      <trkpt lat="46.00496" lon="6.7031">
        <ele>1752</ele>
        <time>2019-11-24T08:41:35Z</time>
      </trkpt>
      <trkpt lat="46.00495" lon="6.70318">
        <ele>1753</ele>
        <time>2019-11-24T08:41:39Z</time>
      </trkpt>
      <trkpt lat="46.00492" lon="6.7033">
        <ele>1760</ele>
        <time>2019-11-24T08:44:02Z</time>
      </trkpt>
      <trkpt lat="46.00489" lon="6.70337">
        <ele>1760</ele>
        <time>2019-11-24T08:44:06Z</time>
      </trkpt>
      <trkpt lat="46.00488" lon="6.70345">
        <ele>1761</ele>
        <time>2019-11-24T08:44:10Z</time>
      </trkpt>
      <trkpt lat="46.00484" lon="6.70355">
        <ele>1758</ele>
        <time>2019-11-24T08:44:24Z</time>
      </trkpt>
      <trkpt lat="46.00482" lon="6.70363">
        <ele>1757</ele>
        <time>2019-11-24T08:44:37Z</time>
      </trkpt>
      <trkpt lat="46.00482" lon="6.7037">
        <ele>1760</ele>
        <time>2019-11-24T08:44:41Z</time>
      </trkpt>
      <trkpt lat="46.00478" lon="6.70376">
        <ele>1760</ele>
        <time>2019-11-24T08:44:45Z</time>
      </trkpt>
      <trkpt lat="46.00478" lon="6.70384">
        <ele>1760</ele>
        <time>2019-11-24T08:44:51Z</time>
      </trkpt>
      <trkpt lat="46.00478" lon="6.70392">
        <ele>1756</ele>
        <time>2019-11-24T08:44:59Z</time>
      </trkpt>
      <trkpt lat="46.00475" lon="6.70398">
        <ele>1758</ele>
        <time>2019-11-24T08:45:05Z</time>
      </trkpt>
      <trkpt lat="46.00474" lon="6.70406">
        <ele>1763</ele>
        <time>2019-11-24T08:45:08Z</time>
      </trkpt>
      <trkpt lat="46.00472" lon="6.70414">
        <ele>1762</ele>
        <time>2019-11-24T08:45:18Z</time>
      </trkpt>
      <trkpt lat="46.00469" lon="6.70428">
        <ele>1763</ele>
        <time>2019-11-24T08:45:29Z</time>
      </trkpt>
      <trkpt lat="46.00467" lon="6.70433">
        <ele>1766</ele>
        <time>2019-11-24T08:45:34Z</time>
      </trkpt>
      <trkpt lat="46.00466" lon="6.70446">
        <ele>1766</ele>
        <time>2019-11-24T08:45:40Z</time>
      </trkpt>
      <trkpt lat="46.00464" lon="6.70455">
        <ele>1766</ele>
        <time>2019-11-24T08:45:54Z</time>
      </trkpt>
      <trkpt lat="46.00463" lon="6.70467">
        <ele>1773</ele>
        <time>2019-11-24T08:46:23Z</time>
      </trkpt>
      <trkpt lat="46.00462" lon="6.70474">
        <ele>1772</ele>
        <time>2019-11-24T08:46:28Z</time>
      </trkpt>
      <trkpt lat="46.00458" lon="6.70504">
        <ele>1785</ele>
        <time>2019-11-24T08:46:58Z</time>
      </trkpt>
      <trkpt lat="46.00457" lon="6.7051">
        <ele>1782</ele>
        <time>2019-11-24T08:47:03Z</time>
      </trkpt>
      <trkpt lat="46.00458" lon="6.70521">
        <ele>1784</ele>
        <time>2019-11-24T08:47:17Z</time>
      </trkpt>
      <trkpt lat="46.00458" lon="6.7053">
        <ele>1786</ele>
        <time>2019-11-24T08:47:29Z</time>
      </trkpt>
      <trkpt lat="46.00459" lon="6.70541">
        <ele>1781</ele>
        <time>2019-11-24T08:47:35Z</time>
      </trkpt>
      <trkpt lat="46.00457" lon="6.70556">
        <ele>1784</ele>
        <time>2019-11-24T08:47:42Z</time>
      </trkpt>
      <trkpt lat="46.00455" lon="6.70561">
        <ele>1786</ele>
        <time>2019-11-24T08:47:46Z</time>
      </trkpt>
      <trkpt lat="46.00452" lon="6.70569">
        <ele>1782</ele>
        <time>2019-11-24T08:47:52Z</time>
      </trkpt>
      <trkpt lat="46.00453" lon="6.70576">
        <ele>1779</ele>
        <time>2019-11-24T08:47:56Z</time>
      </trkpt>
      <trkpt lat="46.00455" lon="6.70582">
        <ele>1774</ele>
        <time>2019-11-24T08:48:03Z</time>
      </trkpt>
      <trkpt lat="46.00456" lon="6.70589">
        <ele>1775</ele>
        <time>2019-11-24T08:48:06Z</time>
      </trkpt>
      <trkpt lat="46.00455" lon="6.70599">
        <ele>1780</ele>
        <time>2019-11-24T08:48:15Z</time>
      </trkpt>
      <trkpt lat="46.00455" lon="6.70607">
        <ele>1780</ele>
        <time>2019-11-24T08:48:23Z</time>
      </trkpt>
      <trkpt lat="46.00458" lon="6.70615">
        <ele>1776</ele>
        <time>2019-11-24T08:48:35Z</time>
      </trkpt>
      <trkpt lat="46.00457" lon="6.70622">
        <ele>1778</ele>
        <time>2019-11-24T08:48:39Z</time>
      </trkpt>
      <trkpt lat="46.00456" lon="6.70631">
        <ele>1778</ele>
        <time>2019-11-24T08:48:47Z</time>
      </trkpt>
      <trkpt lat="46.00452" lon="6.70634">
        <ele>1780</ele>
        <time>2019-11-24T08:48:52Z</time>
      </trkpt>
      <trkpt lat="46.00451" lon="6.70643">
        <ele>1781</ele>
        <time>2019-11-24T08:48:59Z</time>
      </trkpt>
      <trkpt lat="46.00453" lon="6.70649">
        <ele>1784</ele>
        <time>2019-11-24T08:49:03Z</time>
      </trkpt>
      <trkpt lat="46.00449" lon="6.70671">
        <ele>1792</ele>
        <time>2019-11-24T08:49:34Z</time>
      </trkpt>
      <trkpt lat="46.00447" lon="6.70678">
        <ele>1794</ele>
        <time>2019-11-24T08:49:40Z</time>
      </trkpt>
      <trkpt lat="46.00445" lon="6.70687">
        <ele>1792</ele>
        <time>2019-11-24T08:49:58Z</time>
      </trkpt>
      <trkpt lat="46.00446" lon="6.70694">
        <ele>1794</ele>
        <time>2019-11-24T08:50:04Z</time>
      </trkpt>
      <trkpt lat="46.00443" lon="6.707">
        <ele>1796</ele>
        <time>2019-11-24T08:50:12Z</time>
      </trkpt>
      <trkpt lat="46.00444" lon="6.70708">
        <ele>1796</ele>
        <time>2019-11-24T08:50:17Z</time>
      </trkpt>
      <trkpt lat="46.00445" lon="6.70727">
        <ele>1800</ele>
        <time>2019-11-24T08:50:31Z</time>
      </trkpt>
      <trkpt lat="46.00443" lon="6.70735">
        <ele>1807</ele>
        <time>2019-11-24T08:50:55Z</time>
      </trkpt>
      <trkpt lat="46.00443" lon="6.70742">
        <ele>1808</ele>
        <time>2019-11-24T08:51:00Z</time>
      </trkpt>
      <trkpt lat="46.00441" lon="6.70751">
        <ele>1807</ele>
        <time>2019-11-24T08:51:08Z</time>
      </trkpt>
      <trkpt lat="46.00438" lon="6.70759">
        <ele>1807</ele>
        <time>2019-11-24T08:51:18Z</time>
      </trkpt>
      <trkpt lat="46.00432" lon="6.7077">
        <ele>1807</ele>
        <time>2019-11-24T08:51:29Z</time>
      </trkpt>
      <trkpt lat="46.00432" lon="6.70781">
        <ele>1808</ele>
        <time>2019-11-24T08:51:37Z</time>
      </trkpt>
      <trkpt lat="46.00433" lon="6.70805">
        <ele>1813</ele>
        <time>2019-11-24T08:52:03Z</time>
      </trkpt>
      <trkpt lat="46.00434" lon="6.70816">
        <ele>1812</ele>
        <time>2019-11-24T08:52:17Z</time>
      </trkpt>
      <trkpt lat="46.0043" lon="6.70824">
        <ele>1815</ele>
        <time>2019-11-24T08:52:29Z</time>
      </trkpt>
      <trkpt lat="46.00431" lon="6.70831">
        <ele>1818</ele>
        <time>2019-11-24T08:52:41Z</time>
      </trkpt>
      <trkpt lat="46.00425" lon="6.70836">
        <ele>1815</ele>
        <time>2019-11-24T08:52:50Z</time>
      </trkpt>
      <trkpt lat="46.00426" lon="6.70845">
        <ele>1819</ele>
        <time>2019-11-24T08:52:59Z</time>
      </trkpt>
      <trkpt lat="46.0043" lon="6.70851">
        <ele>1822</ele>
        <time>2019-11-24T08:53:13Z</time>
      </trkpt>
      <trkpt lat="46.00429" lon="6.70863">
        <ele>1820</ele>
        <time>2019-11-24T08:53:25Z</time>
      </trkpt>
      <trkpt lat="46.0043" lon="6.70883">
        <ele>1821</ele>
        <time>2019-11-24T08:53:45Z</time>
      </trkpt>
      <trkpt lat="46.00426" lon="6.70902">
        <ele>1829</ele>
        <time>2019-11-24T08:54:27Z</time>
      </trkpt>
      <trkpt lat="46.00428" lon="6.7091">
        <ele>1827</ele>
        <time>2019-11-24T08:54:32Z</time>
      </trkpt>
      <trkpt lat="46.00428" lon="6.70917">
        <ele>1828</ele>
        <time>2019-11-24T08:54:37Z</time>
      </trkpt>
      <trkpt lat="46.00426" lon="6.7093">
        <ele>1834</ele>
        <time>2019-11-24T08:54:52Z</time>
      </trkpt>
      <trkpt lat="46.00422" lon="6.7094">
        <ele>1839</ele>
        <time>2019-11-24T08:55:04Z</time>
      </trkpt>
      <trkpt lat="46.00419" lon="6.70948">
        <ele>1842</ele>
        <time>2019-11-24T08:55:16Z</time>
      </trkpt>
      <trkpt lat="46.00417" lon="6.70957">
        <ele>1851</ele>
        <time>2019-11-24T08:55:40Z</time>
      </trkpt>
      <trkpt lat="46.00419" lon="6.70978">
        <ele>1853</ele>
        <time>2019-11-24T08:55:54Z</time>
      </trkpt>
      <trkpt lat="46.00418" lon="6.70986">
        <ele>1852</ele>
        <time>2019-11-24T08:56:11Z</time>
      </trkpt>
      <trkpt lat="46.00417" lon="6.70998">
        <ele>1853</ele>
        <time>2019-11-24T08:56:23Z</time>
      </trkpt>
      <trkpt lat="46.00418" lon="6.71015">
        <ele>1863</ele>
        <time>2019-11-24T08:56:44Z</time>
      </trkpt>
      <trkpt lat="46.00421" lon="6.71022">
        <ele>1870</ele>
        <time>2019-11-24T08:56:56Z</time>
      </trkpt>
      <trkpt lat="46.00418" lon="6.7103">
        <ele>1866</ele>
        <time>2019-11-24T08:57:49Z</time>
      </trkpt>
      <trkpt lat="46.00419" lon="6.71039">
        <ele>1870</ele>
        <time>2019-11-24T08:57:59Z</time>
      </trkpt>
      <trkpt lat="46.00418" lon="6.71047">
        <ele>1872</ele>
        <time>2019-11-24T08:58:07Z</time>
      </trkpt>
      <trkpt lat="46.00415" lon="6.71052">
        <ele>1872</ele>
        <time>2019-11-24T08:58:11Z</time>
      </trkpt>
      <trkpt lat="46.00413" lon="6.7106">
        <ele>1872</ele>
        <time>2019-11-24T08:58:17Z</time>
      </trkpt>
      <trkpt lat="46.00416" lon="6.71076">
        <ele>1862</ele>
        <time>2019-11-24T08:58:31Z</time>
      </trkpt>
      <trkpt lat="46.00415" lon="6.71085">
        <ele>1864</ele>
        <time>2019-11-24T08:58:41Z</time>
      </trkpt>
      <trkpt lat="46.00412" lon="6.71095">
        <ele>1864</ele>
        <time>2019-11-24T08:58:51Z</time>
      </trkpt>
      <trkpt lat="46.00409" lon="6.71105">
        <ele>1866</ele>
        <time>2019-11-24T08:59:02Z</time>
      </trkpt>
      <trkpt lat="46.00412" lon="6.71116">
        <ele>1864</ele>
        <time>2019-11-24T08:59:14Z</time>
      </trkpt>
      <trkpt lat="46.0042" lon="6.71122">
        <ele>1863</ele>
        <time>2019-11-24T08:59:36Z</time>
      </trkpt>
      <trkpt lat="46.00425" lon="6.71122">
        <ele>1867</ele>
        <time>2019-11-24T08:59:45Z</time>
      </trkpt>
      <trkpt lat="46.00431" lon="6.71123">
        <ele>1872</ele>
        <time>2019-11-24T08:59:50Z</time>
      </trkpt>
      <trkpt lat="46.00436" lon="6.71124">
        <ele>1872</ele>
        <time>2019-11-24T09:00:06Z</time>
      </trkpt>
      <trkpt lat="46.00441" lon="6.71125">
        <ele>1870</ele>
        <time>2019-11-24T09:00:13Z</time>
      </trkpt>
      <trkpt lat="46.00454" lon="6.7112">
        <ele>1878</ele>
        <time>2019-11-24T09:00:29Z</time>
      </trkpt>
      <trkpt lat="46.00461" lon="6.71116">
        <ele>1880</ele>
        <time>2019-11-24T09:00:38Z</time>
      </trkpt>
      <trkpt lat="46.00466" lon="6.71111">
        <ele>1877</ele>
        <time>2019-11-24T09:00:47Z</time>
      </trkpt>
      <trkpt lat="46.00472" lon="6.71108">
        <ele>1879</ele>
        <time>2019-11-24T09:00:59Z</time>
      </trkpt>
      <trkpt lat="46.00475" lon="6.71102">
        <ele>1878</ele>
        <time>2019-11-24T09:01:11Z</time>
      </trkpt>
      <trkpt lat="46.0048" lon="6.71099">
        <ele>1879</ele>
        <time>2019-11-24T09:01:16Z</time>
      </trkpt>
      <trkpt lat="46.00481" lon="6.71091">
        <ele>1881</ele>
        <time>2019-11-24T09:01:30Z</time>
      </trkpt>
      <trkpt lat="46.00483" lon="6.71085">
        <ele>1883</ele>
        <time>2019-11-24T09:01:36Z</time>
      </trkpt>
      <trkpt lat="46.00482" lon="6.71077">
        <ele>1889</ele>
        <time>2019-11-24T09:01:40Z</time>
      </trkpt>
      <trkpt lat="46.00487" lon="6.71074">
        <ele>1885</ele>
        <time>2019-11-24T09:01:47Z</time>
      </trkpt>
      <trkpt lat="46.0049" lon="6.71066">
        <ele>1889</ele>
        <time>2019-11-24T09:01:55Z</time>
      </trkpt>
      <trkpt lat="46.00496" lon="6.71055">
        <ele>1890</ele>
        <time>2019-11-24T09:02:07Z</time>
      </trkpt>
      <trkpt lat="46.00499" lon="6.71049">
        <ele>1893</ele>
        <time>2019-11-24T09:02:12Z</time>
      </trkpt>
      <trkpt lat="46.00503" lon="6.71049">
        <ele>1895</ele>
        <time>2019-11-24T09:02:29Z</time>
      </trkpt>
      <trkpt lat="46.00509" lon="6.71043">
        <ele>1886</ele>
        <time>2019-11-24T09:04:19Z</time>
      </trkpt>
      <trkpt lat="46.00517" lon="6.71035">
        <ele>1889</ele>
        <time>2019-11-24T09:04:27Z</time>
      </trkpt>
      <trkpt lat="46.00519" lon="6.71029">
        <ele>1892</ele>
        <time>2019-11-24T09:04:32Z</time>
      </trkpt>
      <trkpt lat="46.00522" lon="6.71021">
        <ele>1892</ele>
        <time>2019-11-24T09:04:40Z</time>
      </trkpt>
      <trkpt lat="46.00528" lon="6.71017">
        <ele>1900</ele>
        <time>2019-11-24T09:04:52Z</time>
      </trkpt>
      <trkpt lat="46.00531" lon="6.71023">
        <ele>1898</ele>
        <time>2019-11-24T09:04:56Z</time>
      </trkpt>
      <trkpt lat="46.00533" lon="6.71033">
        <ele>1892</ele>
        <time>2019-11-24T09:05:05Z</time>
      </trkpt>
      <trkpt lat="46.00531" lon="6.71044">
        <ele>1890</ele>
        <time>2019-11-24T09:05:17Z</time>
      </trkpt>
      <trkpt lat="46.00525" lon="6.71063">
        <ele>1895</ele>
        <time>2019-11-24T09:05:41Z</time>
      </trkpt>
      <trkpt lat="46.00524" lon="6.7107">
        <ele>1895</ele>
        <time>2019-11-24T09:05:47Z</time>
      </trkpt>
      <trkpt lat="46.00526" lon="6.71077">
        <ele>1893</ele>
        <time>2019-11-24T09:05:52Z</time>
      </trkpt>
      <trkpt lat="46.00525" lon="6.71084">
        <ele>1893</ele>
        <time>2019-11-24T09:05:55Z</time>
      </trkpt>
      <trkpt lat="46.00523" lon="6.7109">
        <ele>1893</ele>
        <time>2019-11-24T09:06:08Z</time>
      </trkpt>
      <trkpt lat="46.00521" lon="6.71097">
        <ele>1893</ele>
        <time>2019-11-24T09:06:18Z</time>
      </trkpt>
      <trkpt lat="46.00521" lon="6.71108">
        <ele>1894</ele>
        <time>2019-11-24T09:06:27Z</time>
      </trkpt>
      <trkpt lat="46.00519" lon="6.71117">
        <ele>1901</ele>
        <time>2019-11-24T09:06:40Z</time>
      </trkpt>
      <trkpt lat="46.00514" lon="6.71144">
        <ele>1910</ele>
        <time>2019-11-24T09:07:16Z</time>
      </trkpt>
      <trkpt lat="46.00512" lon="6.71151">
        <ele>1910</ele>
        <time>2019-11-24T09:07:28Z</time>
      </trkpt>
      <trkpt lat="46.0051" lon="6.71158">
        <ele>1911</ele>
        <time>2019-11-24T09:07:40Z</time>
      </trkpt>
      <trkpt lat="46.00508" lon="6.71168">
        <ele>1916</ele>
        <time>2019-11-24T09:07:52Z</time>
      </trkpt>
      <trkpt lat="46.00507" lon="6.71178">
        <ele>1921</ele>
        <time>2019-11-24T09:08:04Z</time>
      </trkpt>
      <trkpt lat="46.00506" lon="6.71186">
        <ele>1920</ele>
        <time>2019-11-24T09:08:16Z</time>
      </trkpt>
      <trkpt lat="46.00503" lon="6.71193">
        <ele>1921</ele>
        <time>2019-11-24T09:08:22Z</time>
      </trkpt>
      <trkpt lat="46.00502" lon="6.71203">
        <ele>1923</ele>
        <time>2019-11-24T09:08:48Z</time>
      </trkpt>
      <trkpt lat="46.00498" lon="6.71215">
        <ele>1921</ele>
        <time>2019-11-24T09:09:00Z</time>
      </trkpt>
      <trkpt lat="46.00496" lon="6.71221">
        <ele>1923</ele>
        <time>2019-11-24T09:09:06Z</time>
      </trkpt>
      <trkpt lat="46.00491" lon="6.71231">
        <ele>1922</ele>
        <time>2019-11-24T09:09:18Z</time>
      </trkpt>
      <trkpt lat="46.00487" lon="6.7124">
        <ele>1920</ele>
        <time>2019-11-24T09:09:30Z</time>
      </trkpt>
      <trkpt lat="46.00487" lon="6.71249">
        <ele>1921</ele>
        <time>2019-11-24T09:09:42Z</time>
      </trkpt>
      <trkpt lat="46.00484" lon="6.7126">
        <ele>1921</ele>
        <time>2019-11-24T09:09:54Z</time>
      </trkpt>
      <trkpt lat="46.00482" lon="6.71266">
        <ele>1922</ele>
        <time>2019-11-24T09:10:02Z</time>
      </trkpt>
      <trkpt lat="46.0048" lon="6.71275">
        <ele>1927</ele>
        <time>2019-11-24T09:10:14Z</time>
      </trkpt>
      <trkpt lat="46.00473" lon="6.71278">
        <ele>1926</ele>
        <time>2019-11-24T09:10:24Z</time>
      </trkpt>
      <trkpt lat="46.0047" lon="6.71285">
        <ele>1927</ele>
        <time>2019-11-24T09:10:32Z</time>
      </trkpt>
      <trkpt lat="46.00467" lon="6.71294">
        <ele>1927</ele>
        <time>2019-11-24T09:10:49Z</time>
      </trkpt>
      <trkpt lat="46.00465" lon="6.71308">
        <ele>1920</ele>
        <time>2019-11-24T09:11:02Z</time>
      </trkpt>
      <trkpt lat="46.00462" lon="6.71313">
        <ele>1927</ele>
        <time>2019-11-24T09:11:10Z</time>
      </trkpt>
      <trkpt lat="46.00459" lon="6.71322">
        <ele>1932</ele>
        <time>2019-11-24T09:11:17Z</time>
      </trkpt>
      <trkpt lat="46.00458" lon="6.71328">
        <ele>1929</ele>
        <time>2019-11-24T09:11:25Z</time>
      </trkpt>
      <trkpt lat="46.00453" lon="6.71337">
        <ele>1936</ele>
        <time>2019-11-24T09:11:38Z</time>
      </trkpt>
      <trkpt lat="46.00453" lon="6.71347">
        <ele>1939</ele>
        <time>2019-11-24T09:11:46Z</time>
      </trkpt>
      <trkpt lat="46.00454" lon="6.71348">
        <ele>1940</ele>
        <time>2019-11-24T09:13:05Z</time>
      </trkpt>
      <trkpt lat="46.00449" lon="6.7135">
        <ele>1946</ele>
        <time>2019-11-24T09:13:59Z</time>
      </trkpt>
      <trkpt lat="46.00447" lon="6.71359">
        <ele>1948</ele>
        <time>2019-11-24T09:14:19Z</time>
      </trkpt>
      <trkpt lat="46.00443" lon="6.71365">
        <ele>1950</ele>
        <time>2019-11-24T09:14:31Z</time>
      </trkpt>
      <trkpt lat="46.0044" lon="6.71371">
        <ele>1952</ele>
        <time>2019-11-24T09:14:36Z</time>
      </trkpt>
      <trkpt lat="46.00439" lon="6.71379">
        <ele>1949</ele>
        <time>2019-11-24T09:14:44Z</time>
      </trkpt>
      <trkpt lat="46.00438" lon="6.71392">
        <ele>1950</ele>
        <time>2019-11-24T09:15:03Z</time>
      </trkpt>
      <trkpt lat="46.00437" lon="6.714">
        <ele>1949</ele>
        <time>2019-11-24T09:15:10Z</time>
      </trkpt>
      <trkpt lat="46.00436" lon="6.71408">
        <ele>1948</ele>
        <time>2019-11-24T09:15:15Z</time>
      </trkpt>
      <trkpt lat="46.00433" lon="6.71417">
        <ele>1954</ele>
        <time>2019-11-24T09:15:26Z</time>
      </trkpt>
      <trkpt lat="46.00429" lon="6.71421">
        <ele>1953</ele>
        <time>2019-11-24T09:15:32Z</time>
      </trkpt>
      <trkpt lat="46.00424" lon="6.71429">
        <ele>1952</ele>
        <time>2019-11-24T09:15:56Z</time>
      </trkpt>
      <trkpt lat="46.00417" lon="6.71435">
        <ele>1954</ele>
        <time>2019-11-24T09:16:08Z</time>
      </trkpt>
      <trkpt lat="46.00417" lon="6.71442">
        <ele>1959</ele>
        <time>2019-11-24T09:16:26Z</time>
      </trkpt>
      <trkpt lat="46.00413" lon="6.71453">
        <ele>1961</ele>
        <time>2019-11-24T09:16:38Z</time>
      </trkpt>
      <trkpt lat="46.00411" lon="6.71463">
        <ele>1963</ele>
        <time>2019-11-24T09:17:02Z</time>
      </trkpt>
      <trkpt lat="46.00408" lon="6.71469">
        <ele>1964</ele>
        <time>2019-11-24T09:17:14Z</time>
      </trkpt>
      <trkpt lat="46.00399" lon="6.7148">
        <ele>1969</ele>
        <time>2019-11-24T09:17:29Z</time>
      </trkpt>
      <trkpt lat="46.00394" lon="6.7149">
        <ele>1973</ele>
        <time>2019-11-24T09:17:42Z</time>
      </trkpt>
      <trkpt lat="46.00391" lon="6.71498">
        <ele>1971</ele>
        <time>2019-11-24T09:17:50Z</time>
      </trkpt>
      <trkpt lat="46.00389" lon="6.71506">
        <ele>1974</ele>
        <time>2019-11-24T09:17:54Z</time>
      </trkpt>
      <trkpt lat="46.00386" lon="6.71511">
        <ele>1973</ele>
        <time>2019-11-24T09:17:57Z</time>
      </trkpt>
      <trkpt lat="46.00382" lon="6.71517">
        <ele>1976</ele>
        <time>2019-11-24T09:18:06Z</time>
      </trkpt>
      <trkpt lat="46.00381" lon="6.71524">
        <ele>1979</ele>
        <time>2019-11-24T09:18:12Z</time>
      </trkpt>
      <trkpt lat="46.00379" lon="6.71529">
        <ele>1974</ele>
        <time>2019-11-24T09:18:24Z</time>
      </trkpt>
      <trkpt lat="46.00378" lon="6.71539">
        <ele>1968</ele>
        <time>2019-11-24T09:18:37Z</time>
      </trkpt>
      <trkpt lat="46.00374" lon="6.71548">
        <ele>1968</ele>
        <time>2019-11-24T09:18:51Z</time>
      </trkpt>
      <trkpt lat="46.00372" lon="6.71555">
        <ele>1969</ele>
        <time>2019-11-24T09:18:59Z</time>
      </trkpt>
      <trkpt lat="46.00368" lon="6.71563">
        <ele>1968</ele>
        <time>2019-11-24T09:19:14Z</time>
      </trkpt>
      <trkpt lat="46.00358" lon="6.71578">
        <ele>1976</ele>
        <time>2019-11-24T09:19:38Z</time>
      </trkpt>
      <trkpt lat="46.00357" lon="6.71585">
        <ele>1977</ele>
        <time>2019-11-24T09:19:44Z</time>
      </trkpt>
      <trkpt lat="46.00351" lon="6.71594">
        <ele>1977</ele>
        <time>2019-11-24T09:19:56Z</time>
      </trkpt>
      <trkpt lat="46.00346" lon="6.71602">
        <ele>1981</ele>
        <time>2019-11-24T09:20:08Z</time>
      </trkpt>
      <trkpt lat="46.00344" lon="6.71608">
        <ele>1979</ele>
        <time>2019-11-24T09:20:17Z</time>
      </trkpt>
      <trkpt lat="46.0034" lon="6.71611">
        <ele>1981</ele>
        <time>2019-11-24T09:20:29Z</time>
      </trkpt>
      <trkpt lat="46.00337" lon="6.71617">
        <ele>1981</ele>
        <time>2019-11-24T09:20:35Z</time>
      </trkpt>
      <trkpt lat="46.00331" lon="6.71631">
        <ele>1984</ele>
        <time>2019-11-24T09:20:47Z</time>
      </trkpt>
      <trkpt lat="46.00327" lon="6.7164">
        <ele>1982</ele>
        <time>2019-11-24T09:21:03Z</time>
      </trkpt>
      <trkpt lat="46.00324" lon="6.71651">
        <ele>1986</ele>
        <time>2019-11-24T09:21:15Z</time>
      </trkpt>
      <trkpt lat="46.00317" lon="6.71655">
        <ele>1997</ele>
        <time>2019-11-24T09:21:27Z</time>
      </trkpt>
      <trkpt lat="46.00311" lon="6.71661">
        <ele>1991</ele>
        <time>2019-11-24T09:21:51Z</time>
      </trkpt>
      <trkpt lat="46.00301" lon="6.71668">
        <ele>2000</ele>
        <time>2019-11-24T09:22:10Z</time>
      </trkpt>
      <trkpt lat="46.00295" lon="6.71669">
        <ele>2001</ele>
        <time>2019-11-24T09:22:20Z</time>
      </trkpt>
      <trkpt lat="46.00288" lon="6.71666">
        <ele>1998</ele>
        <time>2019-11-24T09:22:29Z</time>
      </trkpt>
      <trkpt lat="46.00283" lon="6.71665">
        <ele>2000</ele>
        <time>2019-11-24T09:22:36Z</time>
      </trkpt>
      <trkpt lat="46.00276" lon="6.71665">
        <ele>2000</ele>
        <time>2019-11-24T09:22:48Z</time>
      </trkpt>
      <trkpt lat="46.00271" lon="6.71664">
        <ele>2006</ele>
        <time>2019-11-24T09:22:58Z</time>
      </trkpt>
      <trkpt lat="46.00266" lon="6.71663">
        <ele>2003</ele>
        <time>2019-11-24T09:23:04Z</time>
      </trkpt>
      <trkpt lat="46.00258" lon="6.71668">
        <ele>2004</ele>
        <time>2019-11-24T09:23:14Z</time>
      </trkpt>
      <trkpt lat="46.00248" lon="6.71669">
        <ele>2010</ele>
        <time>2019-11-24T09:23:22Z</time>
      </trkpt>
      <trkpt lat="46.00242" lon="6.71669">
        <ele>2008</ele>
        <time>2019-11-24T09:23:30Z</time>
      </trkpt>
      <trkpt lat="46.00237" lon="6.71676">
        <ele>2007</ele>
        <time>2019-11-24T09:23:42Z</time>
      </trkpt>
      <trkpt lat="46.0024" lon="6.71681">
        <ele>2009</ele>
        <time>2019-11-24T09:24:06Z</time>
      </trkpt>
      <trkpt lat="46.00238" lon="6.71699">
        <ele>2022</ele>
        <time>2019-11-24T09:24:35Z</time>
      </trkpt>
      <trkpt lat="46.00237" lon="6.71708">
        <ele>2019</ele>
        <time>2019-11-24T09:24:45Z</time>
      </trkpt>
      <trkpt lat="46.00237" lon="6.71715">
        <ele>2020</ele>
        <time>2019-11-24T09:25:00Z</time>
      </trkpt>
      <trkpt lat="46.0024" lon="6.7172">
        <ele>2023</ele>
        <time>2019-11-24T09:25:10Z</time>
      </trkpt>
      <trkpt lat="46.00245" lon="6.71738">
        <ele>2016</ele>
        <time>2019-11-24T09:25:18Z</time>
      </trkpt>
      <trkpt lat="46.00245" lon="6.71748">
        <ele>2018</ele>
        <time>2019-11-24T09:25:46Z</time>
      </trkpt>
      <trkpt lat="46.00246" lon="6.71755">
        <ele>2018</ele>
        <time>2019-11-24T09:25:49Z</time>
      </trkpt>
      <trkpt lat="46.00251" lon="6.71765">
        <ele>2016</ele>
        <time>2019-11-24T09:25:57Z</time>
      </trkpt>
      <trkpt lat="46.00254" lon="6.7177">
        <ele>2016</ele>
        <time>2019-11-24T09:26:01Z</time>
      </trkpt>
      <trkpt lat="46.00258" lon="6.71778">
        <ele>2012</ele>
        <time>2019-11-24T09:26:49Z</time>
      </trkpt>
      <trkpt lat="46.00256" lon="6.71786">
        <ele>2014</ele>
        <time>2019-11-24T09:26:55Z</time>
      </trkpt>
      <trkpt lat="46.00253" lon="6.71794">
        <ele>2011</ele>
        <time>2019-11-24T09:27:03Z</time>
      </trkpt>
      <trkpt lat="46.00252" lon="6.71801">
        <ele>2011</ele>
        <time>2019-11-24T09:27:07Z</time>
      </trkpt>
      <trkpt lat="46.00252" lon="6.71808">
        <ele>2013</ele>
        <time>2019-11-24T09:27:12Z</time>
      </trkpt>
      <trkpt lat="46.00255" lon="6.71815">
        <ele>2014</ele>
        <time>2019-11-24T09:27:20Z</time>
      </trkpt>
      <trkpt lat="46.00261" lon="6.71806">
        <ele>2024</ele>
        <time>2019-11-24T09:27:32Z</time>
      </trkpt>
      <trkpt lat="46.00264" lon="6.71801">
        <ele>2021</ele>
        <time>2019-11-24T09:27:38Z</time>
      </trkpt>
      <trkpt lat="46.00275" lon="6.71789">
        <ele>2027</ele>
        <time>2019-11-24T09:27:57Z</time>
      </trkpt>
      <trkpt lat="46.00281" lon="6.71783">
        <ele>2027</ele>
        <time>2019-11-24T09:28:09Z</time>
      </trkpt>
      <trkpt lat="46.00288" lon="6.71779">
        <ele>2025</ele>
        <time>2019-11-24T09:28:21Z</time>
      </trkpt>
      <trkpt lat="46.00291" lon="6.71774">
        <ele>2025</ele>
        <time>2019-11-24T09:28:26Z</time>
      </trkpt>
      <trkpt lat="46.00295" lon="6.71769">
        <ele>2029</ele>
        <time>2019-11-24T09:28:34Z</time>
      </trkpt>
      <trkpt lat="46.00302" lon="6.71762">
        <ele>2032</ele>
        <time>2019-11-24T09:28:46Z</time>
      </trkpt>
      <trkpt lat="46.00307" lon="6.71766">
        <ele>2032</ele>
        <time>2019-11-24T09:28:55Z</time>
      </trkpt>
      <trkpt lat="46.00309" lon="6.71772">
        <ele>2032</ele>
        <time>2019-11-24T09:29:02Z</time>
      </trkpt>
      <trkpt lat="46.0031" lon="6.71782">
        <ele>2034</ele>
        <time>2019-11-24T09:29:19Z</time>
      </trkpt>
      <trkpt lat="46.00311" lon="6.71788">
        <ele>2033</ele>
        <time>2019-11-24T09:29:23Z</time>
      </trkpt>
      <trkpt lat="46.00309" lon="6.71795">
        <ele>2035</ele>
        <time>2019-11-24T09:29:31Z</time>
      </trkpt>
      <trkpt lat="46.00308" lon="6.71806">
        <ele>2035</ele>
        <time>2019-11-24T09:29:38Z</time>
      </trkpt>
      <trkpt lat="46.00316" lon="6.71811">
        <ele>2036</ele>
        <time>2019-11-24T09:29:48Z</time>
      </trkpt>
      <trkpt lat="46.00324" lon="6.7181">
        <ele>2038</ele>
        <time>2019-11-24T09:29:56Z</time>
      </trkpt>
      <trkpt lat="46.00329" lon="6.7181">
        <ele>2037</ele>
        <time>2019-11-24T09:30:01Z</time>
      </trkpt>
      <trkpt lat="46.00337" lon="6.7181">
        <ele>2049</ele>
        <time>2019-11-24T09:30:15Z</time>
      </trkpt>
      <trkpt lat="46.00339" lon="6.71803">
        <ele>2055</ele>
        <time>2019-11-24T09:30:27Z</time>
      </trkpt>
      <trkpt lat="46.00351" lon="6.71793">
        <ele>2062</ele>
        <time>2019-11-24T09:30:42Z</time>
      </trkpt>
      <trkpt lat="46.00355" lon="6.71788">
        <ele>2059</ele>
        <time>2019-11-24T09:30:48Z</time>
      </trkpt>
      <trkpt lat="46.00364" lon="6.71786">
        <ele>2056</ele>
        <time>2019-11-24T09:30:59Z</time>
      </trkpt>
      <trkpt lat="46.00373" lon="6.71777">
        <ele>2052</ele>
        <time>2019-11-24T09:31:13Z</time>
      </trkpt>
      <trkpt lat="46.00377" lon="6.71772">
        <ele>2051</ele>
        <time>2019-11-24T09:31:21Z</time>
      </trkpt>
      <trkpt lat="46.00383" lon="6.7177">
        <ele>2046</ele>
        <time>2019-11-24T09:31:33Z</time>
      </trkpt>
      <trkpt lat="46.00391" lon="6.71765">
        <ele>2047</ele>
        <time>2019-11-24T09:31:45Z</time>
      </trkpt>
      <trkpt lat="46.00397" lon="6.71766">
        <ele>2049</ele>
        <time>2019-11-24T09:31:55Z</time>
      </trkpt>
      <trkpt lat="46.00389" lon="6.71784">
        <ele>2055</ele>
        <time>2019-11-24T09:32:19Z</time>
      </trkpt>
      <trkpt lat="46.00385" lon="6.71794">
        <ele>2061</ele>
        <time>2019-11-24T09:32:31Z</time>
      </trkpt>
      <trkpt lat="46.00381" lon="6.71802">
        <ele>2059</ele>
        <time>2019-11-24T09:32:47Z</time>
      </trkpt>
      <trkpt lat="46.0038" lon="6.71812">
        <ele>2061</ele>
        <time>2019-11-24T09:32:59Z</time>
      </trkpt>
      <trkpt lat="46.00379" lon="6.71819">
        <ele>2066</ele>
        <time>2019-11-24T09:33:04Z</time>
      </trkpt>
      <trkpt lat="46.00379" lon="6.71827">
        <ele>2066</ele>
        <time>2019-11-24T09:33:14Z</time>
      </trkpt>
      <trkpt lat="46.00377" lon="6.71834">
        <ele>2062</ele>
        <time>2019-11-24T09:33:24Z</time>
      </trkpt>
      <trkpt lat="46.00376" lon="6.71843">
        <ele>2057</ele>
        <time>2019-11-24T09:33:43Z</time>
      </trkpt>
      <trkpt lat="46.00376" lon="6.71851">
        <ele>2057</ele>
        <time>2019-11-24T09:33:50Z</time>
      </trkpt>
      <trkpt lat="46.00376" lon="6.71861">
        <ele>2059</ele>
        <time>2019-11-24T09:34:00Z</time>
      </trkpt>
      <trkpt lat="46.00376" lon="6.71868">
        <ele>2058</ele>
        <time>2019-11-24T09:34:10Z</time>
      </trkpt>
      <trkpt lat="46.00374" lon="6.7188">
        <ele>2057</ele>
        <time>2019-11-24T09:34:26Z</time>
      </trkpt>
      <trkpt lat="46.00372" lon="6.71887">
        <ele>2062</ele>
        <time>2019-11-24T09:34:35Z</time>
      </trkpt>
      <trkpt lat="46.00371" lon="6.71902">
        <ele>2069</ele>
        <time>2019-11-24T09:34:46Z</time>
      </trkpt>
      <trkpt lat="46.00368" lon="6.71907">
        <ele>2070</ele>
        <time>2019-11-24T09:34:53Z</time>
      </trkpt>
      <trkpt lat="46.00369" lon="6.71914">
        <ele>2070</ele>
        <time>2019-11-24T09:34:58Z</time>
      </trkpt>
      <trkpt lat="46.00371" lon="6.71932">
        <ele>2065</ele>
        <time>2019-11-24T09:35:18Z</time>
      </trkpt>
      <trkpt lat="46.0037" lon="6.7194">
        <ele>2061</ele>
        <time>2019-11-24T09:35:30Z</time>
      </trkpt>
      <trkpt lat="46.00369" lon="6.71951">
        <ele>2060</ele>
        <time>2019-11-24T09:35:42Z</time>
      </trkpt>
      <trkpt lat="46.00367" lon="6.71956">
        <ele>2066</ele>
        <time>2019-11-24T09:36:00Z</time>
      </trkpt>
      <trkpt lat="46.0036" lon="6.7198">
        <ele>2074</ele>
        <time>2019-11-24T09:36:33Z</time>
      </trkpt>
      <trkpt lat="46.00357" lon="6.71985">
        <ele>2075</ele>
        <time>2019-11-24T09:36:38Z</time>
      </trkpt>
      <trkpt lat="46.00349" lon="6.72013">
        <ele>2084</ele>
        <time>2019-11-24T09:37:13Z</time>
      </trkpt>
      <trkpt lat="46.0035" lon="6.72021">
        <ele>2083</ele>
        <time>2019-11-24T09:37:23Z</time>
      </trkpt>
      <trkpt lat="46.00349" lon="6.72039">
        <ele>2092</ele>
        <time>2019-11-24T09:37:48Z</time>
      </trkpt>
      <trkpt lat="46.00343" lon="6.72048">
        <ele>2089</ele>
        <time>2019-11-24T09:38:12Z</time>
      </trkpt>
      <trkpt lat="46.00342" lon="6.72055">
        <ele>2088</ele>
        <time>2019-11-24T09:38:18Z</time>
      </trkpt>
      <trkpt lat="46.00337" lon="6.72061">
        <ele>2088</ele>
        <time>2019-11-24T09:38:30Z</time>
      </trkpt>
      <trkpt lat="46.00335" lon="6.72069">
        <ele>2088</ele>
        <time>2019-11-24T09:38:42Z</time>
      </trkpt>
      <trkpt lat="46.00329" lon="6.72087">
        <ele>2096</ele>
        <time>2019-11-24T09:42:43Z</time>
      </trkpt>
      <trkpt lat="46.00325" lon="6.72089">
        <ele>2103</ele>
        <time>2019-11-24T09:44:25Z</time>
      </trkpt>
      <trkpt lat="46.00316" lon="6.72103">
        <ele>2099</ele>
        <time>2019-11-24T09:45:02Z</time>
      </trkpt>
      <trkpt lat="46.00311" lon="6.72126">
        <ele>2096</ele>
        <time>2019-11-24T09:45:26Z</time>
      </trkpt>
      <trkpt lat="46.00313" lon="6.72135">
        <ele>2092</ele>
        <time>2019-11-24T09:45:38Z</time>
      </trkpt>
      <trkpt lat="46.0031" lon="6.72149">
        <ele>2097</ele>
        <time>2019-11-24T09:45:50Z</time>
      </trkpt>
      <trkpt lat="46.00308" lon="6.72158">
        <ele>2096</ele>
        <time>2019-11-24T09:46:02Z</time>
      </trkpt>
      <trkpt lat="46.003" lon="6.7218">
        <ele>2103</ele>
        <time>2019-11-24T09:46:27Z</time>
      </trkpt>
      <trkpt lat="46.00299" lon="6.72191">
        <ele>2103</ele>
        <time>2019-11-24T09:46:39Z</time>
      </trkpt>
      <trkpt lat="46.00297" lon="6.72202">
        <ele>2105</ele>
        <time>2019-11-24T09:46:49Z</time>
      </trkpt>
      <trkpt lat="46.00294" lon="6.72208">
        <ele>2106</ele>
        <time>2019-11-24T09:46:58Z</time>
      </trkpt>
      <trkpt lat="46.00293" lon="6.72219">
        <ele>2104</ele>
        <time>2019-11-24T09:47:10Z</time>
      </trkpt>
      <trkpt lat="46.00292" lon="6.72227">
        <ele>2104</ele>
        <time>2019-11-24T09:47:22Z</time>
      </trkpt>
      <trkpt lat="46.00285" lon="6.72247">
        <ele>2109</ele>
        <time>2019-11-24T09:47:46Z</time>
      </trkpt>
      <trkpt lat="46.00281" lon="6.72256">
        <ele>2109</ele>
        <time>2019-11-24T09:47:58Z</time>
      </trkpt>
      <trkpt lat="46.00279" lon="6.72263">
        <ele>2110</ele>
        <time>2019-11-24T09:48:09Z</time>
      </trkpt>
      <trkpt lat="46.00277" lon="6.72271">
        <ele>2111</ele>
        <time>2019-11-24T09:48:19Z</time>
      </trkpt>
      <trkpt lat="46.00276" lon="6.72282">
        <ele>2111</ele>
        <time>2019-11-24T09:48:34Z</time>
      </trkpt>
      <trkpt lat="46.00274" lon="6.72291">
        <ele>2115</ele>
        <time>2019-11-24T09:48:44Z</time>
      </trkpt>
      <trkpt lat="46.00274" lon="6.72301">
        <ele>2116</ele>
        <time>2019-11-24T09:48:56Z</time>
      </trkpt>
      <trkpt lat="46.00272" lon="6.72311">
        <ele>2118</ele>
        <time>2019-11-24T09:49:08Z</time>
      </trkpt>
      <trkpt lat="46.00272" lon="6.72339">
        <ele>2122</ele>
        <time>2019-11-24T09:49:44Z</time>
      </trkpt>
      <trkpt lat="46.00274" lon="6.72349">
        <ele>2121</ele>
        <time>2019-11-24T09:49:56Z</time>
      </trkpt>
      <trkpt lat="46.00273" lon="6.72357">
        <ele>2116</ele>
        <time>2019-11-24T09:50:08Z</time>
      </trkpt>
      <trkpt lat="46.00274" lon="6.72368">
        <ele>2119</ele>
        <time>2019-11-24T09:50:20Z</time>
      </trkpt>
      <trkpt lat="46.00273" lon="6.72383">
        <ele>2125</ele>
        <time>2019-11-24T09:50:37Z</time>
      </trkpt>
      <trkpt lat="46.00274" lon="6.72389">
        <ele>2125</ele>
        <time>2019-11-24T09:50:42Z</time>
      </trkpt>
      <trkpt lat="46.00274" lon="6.72396">
        <ele>2125</ele>
        <time>2019-11-24T09:50:50Z</time>
      </trkpt>
      <trkpt lat="46.00275" lon="6.72407">
        <ele>2127</ele>
        <time>2019-11-24T09:51:02Z</time>
      </trkpt>
      <trkpt lat="46.00277" lon="6.72419">
        <ele>2126</ele>
        <time>2019-11-24T09:51:14Z</time>
      </trkpt>
      <trkpt lat="46.00278" lon="6.7243">
        <ele>2126</ele>
        <time>2019-11-24T09:51:26Z</time>
      </trkpt>
      <trkpt lat="46.00279" lon="6.7245">
        <ele>2132</ele>
        <time>2019-11-24T09:51:50Z</time>
      </trkpt>
      <trkpt lat="46.0028" lon="6.72457">
        <ele>2133</ele>
        <time>2019-11-24T09:52:02Z</time>
      </trkpt>
      <trkpt lat="46.00278" lon="6.72476">
        <ele>2137</ele>
        <time>2019-11-24T09:52:26Z</time>
      </trkpt>
      <trkpt lat="46.00278" lon="6.72484">
        <ele>2135</ele>
        <time>2019-11-24T09:52:38Z</time>
      </trkpt>
      <trkpt lat="46.00276" lon="6.72495">
        <ele>2139</ele>
        <time>2019-11-24T09:52:50Z</time>
      </trkpt>
      <trkpt lat="46.00276" lon="6.72502">
        <ele>2139</ele>
        <time>2019-11-24T09:52:56Z</time>
      </trkpt>
      <trkpt lat="46.00275" lon="6.72512">
        <ele>2141</ele>
        <time>2019-11-24T09:53:08Z</time>
      </trkpt>
      <trkpt lat="46.00276" lon="6.7252">
        <ele>2144</ele>
        <time>2019-11-24T09:53:20Z</time>
      </trkpt>
      <trkpt lat="46.00277" lon="6.72531">
        <ele>2142</ele>
        <time>2019-11-24T09:53:32Z</time>
      </trkpt>
      <trkpt lat="46.0028" lon="6.7254">
        <ele>2143</ele>
        <time>2019-11-24T09:53:44Z</time>
      </trkpt>
      <trkpt lat="46.0028" lon="6.72551">
        <ele>2147</ele>
        <time>2019-11-24T09:53:56Z</time>
      </trkpt>
      <trkpt lat="46.00284" lon="6.72562">
        <ele>2150</ele>
        <time>2019-11-24T09:54:08Z</time>
      </trkpt>
      <trkpt lat="46.00284" lon="6.72573">
        <ele>2153</ele>
        <time>2019-11-24T09:54:26Z</time>
      </trkpt>
      <trkpt lat="46.00285" lon="6.72584">
        <ele>2153</ele>
        <time>2019-11-24T09:54:38Z</time>
      </trkpt>
      <trkpt lat="46.00284" lon="6.72593">
        <ele>2153</ele>
        <time>2019-11-24T09:54:50Z</time>
      </trkpt>
      <trkpt lat="46.00283" lon="6.72603">
        <ele>2154</ele>
        <time>2019-11-24T09:55:02Z</time>
      </trkpt>
      <trkpt lat="46.00283" lon="6.72629">
        <ele>2158</ele>
        <time>2019-11-24T09:55:34Z</time>
      </trkpt>
      <trkpt lat="46.00278" lon="6.72658">
        <ele>2162</ele>
        <time>2019-11-24T09:56:11Z</time>
      </trkpt>
      <trkpt lat="46.00265" lon="6.72692">
        <ele>2167</ele>
        <time>2019-11-24T09:56:53Z</time>
      </trkpt>
      <trkpt lat="46.00261" lon="6.72697">
        <ele>2169</ele>
        <time>2019-11-24T09:57:05Z</time>
      </trkpt>
      <trkpt lat="46.00252" lon="6.72725">
        <ele>2174</ele>
        <time>2019-11-24T09:57:41Z</time>
      </trkpt>
      <trkpt lat="46.00249" lon="6.72731">
        <ele>2174</ele>
        <time>2019-11-24T09:57:47Z</time>
      </trkpt>
      <trkpt lat="46.00238" lon="6.72753">
        <ele>2178</ele>
        <time>2019-11-24T09:58:23Z</time>
      </trkpt>
      <trkpt lat="46.00234" lon="6.72761">
        <ele>2180</ele>
        <time>2019-11-24T09:58:35Z</time>
      </trkpt>
      <trkpt lat="46.00232" lon="6.72769">
        <ele>2181</ele>
        <time>2019-11-24T09:58:53Z</time>
      </trkpt>
      <trkpt lat="46.00216" lon="6.72783">
        <ele>2185</ele>
        <time>2019-11-24T09:59:29Z</time>
      </trkpt>
      <trkpt lat="46.00212" lon="6.72789">
        <ele>2186</ele>
        <time>2019-11-24T09:59:35Z</time>
      </trkpt>
      <trkpt lat="46.00208" lon="6.72791">
        <ele>2187</ele>
        <time>2019-11-24T09:59:40Z</time>
      </trkpt>
      <trkpt lat="46.00203" lon="6.72796">
        <ele>2188</ele>
        <time>2019-11-24T09:59:45Z</time>
      </trkpt>
      <trkpt lat="46.002" lon="6.72801">
        <ele>2189</ele>
        <time>2019-11-24T09:59:59Z</time>
      </trkpt>
      <trkpt lat="46.00193" lon="6.72808">
        <ele>2191</ele>
        <time>2019-11-24T10:00:11Z</time>
      </trkpt>
      <trkpt lat="46.00186" lon="6.72811">
        <ele>2191</ele>
        <time>2019-11-24T10:00:23Z</time>
      </trkpt>
      <trkpt lat="46.00166" lon="6.72836">
        <ele>2196</ele>
        <time>2019-11-24T10:01:04Z</time>
      </trkpt>
      <trkpt lat="46.00155" lon="6.72853">
        <ele>2200</ele>
        <time>2019-11-24T10:01:41Z</time>
      </trkpt>
      <trkpt lat="46.00141" lon="6.72876">
        <ele>2206</ele>
        <time>2019-11-24T10:03:49Z</time>
      </trkpt>
      <trkpt lat="46.00123" lon="6.72908">
        <ele>2211</ele>
        <time>2019-11-24T10:04:28Z</time>
      </trkpt>
      <trkpt lat="46.00115" lon="6.72924">
        <ele>2218</ele>
        <time>2019-11-24T10:07:46Z</time>
      </trkpt>
      <trkpt lat="46.00111" lon="6.72927">
        <ele>2219</ele>
        <time>2019-11-24T10:07:58Z</time>
      </trkpt>
      <trkpt lat="46.00106" lon="6.72933">
        <ele>2221</ele>
        <time>2019-11-24T10:09:28Z</time>
      </trkpt>
      <trkpt lat="46.00098" lon="6.72943">
        <ele>2223</ele>
        <time>2019-11-24T10:09:40Z</time>
      </trkpt>
      <trkpt lat="46.00096" lon="6.72949">
        <ele>2224</ele>
        <time>2019-11-24T10:09:55Z</time>
      </trkpt>
      <trkpt lat="46.00081" lon="6.72964">
        <ele>2228</ele>
        <time>2019-11-24T10:10:28Z</time>
      </trkpt>
      <trkpt lat="46.00076" lon="6.72972">
        <ele>2230</ele>
        <time>2019-11-24T10:10:43Z</time>
      </trkpt>
      <trkpt lat="46.00069" lon="6.72975">
        <ele>2232</ele>
        <time>2019-11-24T10:10:56Z</time>
      </trkpt>
      <trkpt lat="46.00064" lon="6.72981">
        <ele>2234</ele>
        <time>2019-11-24T10:11:08Z</time>
      </trkpt>
      <trkpt lat="46.00058" lon="6.72985">
        <ele>2235</ele>
        <time>2019-11-24T10:11:20Z</time>
      </trkpt>
      <trkpt lat="46.00046" lon="6.72996">
        <ele>2239</ele>
        <time>2019-11-24T10:11:51Z</time>
      </trkpt>
      <trkpt lat="46.00048" lon="6.73003">
        <ele>2241</ele>
        <time>2019-11-24T10:12:04Z</time>
      </trkpt>
      <trkpt lat="46.00053" lon="6.73006">
        <ele>2243</ele>
        <time>2019-11-24T10:12:16Z</time>
      </trkpt>
      <trkpt lat="46.00065" lon="6.73008">
        <ele>2243</ele>
        <time>2019-11-24T10:12:42Z</time>
      </trkpt>
      <trkpt lat="46.00078" lon="6.73011">
        <ele>2245</ele>
        <time>2019-11-24T10:13:05Z</time>
      </trkpt>
      <trkpt lat="46.00092" lon="6.73011">
        <ele>2247</ele>
        <time>2019-11-24T10:13:25Z</time>
      </trkpt>
      <trkpt lat="46.0011" lon="6.73005">
        <ele>2251</ele>
        <time>2019-11-24T10:13:48Z</time>
      </trkpt>
      <trkpt lat="46.00121" lon="6.72995">
        <ele>2255</ele>
        <time>2019-11-24T10:14:08Z</time>
      </trkpt>
      <trkpt lat="46.00128" lon="6.72993">
        <ele>2256</ele>
        <time>2019-11-24T10:14:20Z</time>
      </trkpt>
      <trkpt lat="46.00142" lon="6.72986">
        <ele>2259</ele>
        <time>2019-11-24T10:14:39Z</time>
      </trkpt>
      <trkpt lat="46.00157" lon="6.72976">
        <ele>2262</ele>
        <time>2019-11-24T10:15:03Z</time>
      </trkpt>
      <trkpt lat="46.0016" lon="6.72971">
        <ele>2262</ele>
        <time>2019-11-24T10:15:09Z</time>
      </trkpt>
      <trkpt lat="46.00168" lon="6.72969">
        <ele>2264</ele>
        <time>2019-11-24T10:15:21Z</time>
      </trkpt>
      <trkpt lat="46.00174" lon="6.72969">
        <ele>2265</ele>
        <time>2019-11-24T10:15:33Z</time>
      </trkpt>
      <trkpt lat="46.00182" lon="6.72966">
        <ele>2266</ele>
        <time>2019-11-24T10:15:45Z</time>
      </trkpt>
      <trkpt lat="46.00196" lon="6.72971">
        <ele>2267</ele>
        <time>2019-11-24T10:16:03Z</time>
      </trkpt>
      <trkpt lat="46.00201" lon="6.72971">
        <ele>2267</ele>
        <time>2019-11-24T10:16:09Z</time>
      </trkpt>
      <trkpt lat="46.00212" lon="6.72978">
        <ele>2268</ele>
        <time>2019-11-24T10:16:22Z</time>
      </trkpt>
      <trkpt lat="46.00216" lon="6.72982">
        <ele>2268</ele>
        <time>2019-11-24T10:16:27Z</time>
      </trkpt>
      <trkpt lat="46.00218" lon="6.72988">
        <ele>2269</ele>
        <time>2019-11-24T10:16:35Z</time>
      </trkpt>
      <trkpt lat="46.00224" lon="6.72993">
        <ele>2270</ele>
        <time>2019-11-24T10:16:45Z</time>
      </trkpt>
      <trkpt lat="46.00227" lon="6.73">
        <ele>2272</ele>
        <time>2019-11-24T10:17:00Z</time>
      </trkpt>
      <trkpt lat="46.00222" lon="6.73005">
        <ele>2273</ele>
        <time>2019-11-24T10:17:11Z</time>
      </trkpt>
      <trkpt lat="46.0022" lon="6.73012">
        <ele>2274</ele>
        <time>2019-11-24T10:17:23Z</time>
      </trkpt>
      <trkpt lat="46.00219" lon="6.73046">
        <ele>2280</ele>
        <time>2019-11-24T10:18:11Z</time>
      </trkpt>
      <trkpt lat="46.00217" lon="6.73071">
        <ele>2285</ele>
        <time>2019-11-24T10:18:56Z</time>
      </trkpt>
      <trkpt lat="46.00223" lon="6.73096">
        <ele>2291</ele>
        <time>2019-11-24T10:19:46Z</time>
      </trkpt>
      <trkpt lat="46.00232" lon="6.73118">
        <ele>2295</ele>
        <time>2019-11-24T10:20:22Z</time>
      </trkpt>
      <trkpt lat="46.00234" lon="6.73127">
        <ele>2297</ele>
        <time>2019-11-24T10:20:40Z</time>
      </trkpt>
      <trkpt lat="46.00236" lon="6.73137">
        <ele>2299</ele>
        <time>2019-11-24T10:20:52Z</time>
      </trkpt>
      <trkpt lat="46.00239" lon="6.73146">
        <ele>2299</ele>
        <time>2019-11-24T10:20:58Z</time>
      </trkpt>
      <trkpt lat="46.00241" lon="6.73153">
        <ele>2300</ele>
        <time>2019-11-24T10:21:07Z</time>
      </trkpt>
      <trkpt lat="46.00243" lon="6.73169">
        <ele>2304</ele>
        <time>2019-11-24T10:21:37Z</time>
      </trkpt>
      <trkpt lat="46.00252" lon="6.73194">
        <ele>2309</ele>
        <time>2019-11-24T10:22:12Z</time>
      </trkpt>
      <trkpt lat="46.00251" lon="6.73203">
        <ele>2310</ele>
        <time>2019-11-24T10:22:20Z</time>
      </trkpt>
      <trkpt lat="46.00252" lon="6.73209">
        <ele>2311</ele>
        <time>2019-11-24T10:22:26Z</time>
      </trkpt>
      <trkpt lat="46.00251" lon="6.73217">
        <ele>2312</ele>
        <time>2019-11-24T10:22:38Z</time>
      </trkpt>
      <trkpt lat="46.00253" lon="6.73226">
        <ele>2313</ele>
        <time>2019-11-24T10:22:50Z</time>
      </trkpt>
      <trkpt lat="46.00262" lon="6.73248">
        <ele>2317</ele>
        <time>2019-11-24T10:23:26Z</time>
      </trkpt>
      <trkpt lat="46.00268" lon="6.73255">
        <ele>2319</ele>
        <time>2019-11-24T10:23:38Z</time>
      </trkpt>
      <trkpt lat="46.00283" lon="6.73271">
        <ele>2321</ele>
        <time>2019-11-24T10:24:03Z</time>
      </trkpt>
      <trkpt lat="46.00286" lon="6.73278">
        <ele>2322</ele>
        <time>2019-11-24T10:24:13Z</time>
      </trkpt>
      <trkpt lat="46.00288" lon="6.73284">
        <ele>2324</ele>
        <time>2019-11-24T10:24:28Z</time>
      </trkpt>
      <trkpt lat="46.00292" lon="6.73289">
        <ele>2326</ele>
        <time>2019-11-24T10:24:43Z</time>
      </trkpt>
      <trkpt lat="46.00298" lon="6.73295">
        <ele>2327</ele>
        <time>2019-11-24T10:24:55Z</time>
      </trkpt>
      <trkpt lat="46.00304" lon="6.73301">
        <ele>2329</ele>
        <time>2019-11-24T10:25:07Z</time>
      </trkpt>
      <trkpt lat="46.00323" lon="6.73314">
        <ele>2334</ele>
        <time>2019-11-24T10:25:55Z</time>
      </trkpt>
      <trkpt lat="46.00333" lon="6.73317">
        <ele>2336</ele>
        <time>2019-11-24T10:26:13Z</time>
      </trkpt>
      <trkpt lat="46.00353" lon="6.73333">
        <ele>2340</ele>
        <time>2019-11-24T10:26:52Z</time>
      </trkpt>
      <trkpt lat="46.00358" lon="6.73337">
        <ele>2341</ele>
        <time>2019-11-24T10:27:04Z</time>
      </trkpt>
      <trkpt lat="46.00364" lon="6.73344">
        <ele>2343</ele>
        <time>2019-11-24T10:27:16Z</time>
      </trkpt>
      <trkpt lat="46.00369" lon="6.73348">
        <ele>2344</ele>
        <time>2019-11-24T10:27:28Z</time>
      </trkpt>
      <trkpt lat="46.00375" lon="6.73358">
        <ele>2345</ele>
        <time>2019-11-24T10:27:40Z</time>
      </trkpt>
      <trkpt lat="46.00383" lon="6.73366">
        <ele>2346</ele>
        <time>2019-11-24T10:27:50Z</time>
      </trkpt>
      <trkpt lat="46.00396" lon="6.73387">
        <ele>2349</ele>
        <time>2019-11-24T10:28:22Z</time>
      </trkpt>
      <trkpt lat="46.004" lon="6.73397">
        <ele>2350</ele>
        <time>2019-11-24T10:28:34Z</time>
      </trkpt>
      <trkpt lat="46.00398" lon="6.73403">
        <ele>2352</ele>
        <time>2019-11-24T10:28:46Z</time>
      </trkpt>
      <trkpt lat="46.00381" lon="6.73405">
        <ele>2355</ele>
        <time>2019-11-24T10:29:07Z</time>
      </trkpt>
      <trkpt lat="46.00358" lon="6.73403">
        <ele>2359</ele>
        <time>2019-11-24T10:29:45Z</time>
      </trkpt>
      <trkpt lat="46.00345" lon="6.73397">
        <ele>2361</ele>
        <time>2019-11-24T10:30:11Z</time>
      </trkpt>
      <trkpt lat="46.0034" lon="6.73396">
        <ele>2361</ele>
        <time>2019-11-24T10:30:17Z</time>
      </trkpt>
      <trkpt lat="46.00337" lon="6.73402">
        <ele>2364</ele>
        <time>2019-11-24T10:30:41Z</time>
      </trkpt>
      <trkpt lat="46.0035" lon="6.73419">
        <ele>2367</ele>
        <time>2019-11-24T10:31:15Z</time>
      </trkpt>
      <trkpt lat="46.00362" lon="6.73435">
        <ele>2370</ele>
        <time>2019-11-24T10:31:40Z</time>
      </trkpt>
      <trkpt lat="46.00367" lon="6.73453">
        <ele>2374</ele>
        <time>2019-11-24T10:32:08Z</time>
      </trkpt>
      <trkpt lat="46.00381" lon="6.73469">
        <ele>2376</ele>
        <time>2019-11-24T10:32:38Z</time>
      </trkpt>
      <trkpt lat="46.00389" lon="6.73473">
        <ele>2376</ele>
        <time>2019-11-24T10:32:50Z</time>
      </trkpt>
      <trkpt lat="46.00408" lon="6.7348">
        <ele>2376</ele>
        <time>2019-11-24T10:33:14Z</time>
      </trkpt>
      <trkpt lat="46.00408" lon="6.73482">
        <ele>2376</ele>
        <time>2019-11-24T10:38:20Z</time>
      </trkpt>
      <trkpt lat="46.0041" lon="6.73471">
        <ele>2376</ele>
        <time>2019-11-24T10:39:17Z</time>
      </trkpt>
      <trkpt lat="46.00408" lon="6.73477">
        <ele>2376</ele>
        <time>2019-11-24T10:40:35Z</time>
      </trkpt>
      <trkpt lat="46.00412" lon="6.73483">
        <ele>2376</ele>
        <time>2019-11-24T10:41:17Z</time>
      </trkpt>
      <trkpt lat="46.00413" lon="6.73483">
        <ele>2375</ele>
        <time>2019-11-24T11:22:21Z</time>
      </trkpt>
      <trkpt lat="46.0041" lon="6.73473">
        <ele>2375</ele>
        <time>2019-11-24T11:23:03Z</time>
      </trkpt>
      <trkpt lat="46.00401" lon="6.73474">
        <ele>2376</ele>
        <time>2019-11-24T11:23:15Z</time>
      </trkpt>
      <trkpt lat="46.00396" lon="6.73474">
        <ele>2375</ele>
        <time>2019-11-24T11:23:21Z</time>
      </trkpt>
      <trkpt lat="46.00385" lon="6.73465">
        <ele>2376</ele>
        <time>2019-11-24T11:23:45Z</time>
      </trkpt>
      <trkpt lat="46.00378" lon="6.73464">
        <ele>2375</ele>
        <time>2019-11-24T11:23:57Z</time>
      </trkpt>
      <trkpt lat="46.00372" lon="6.7346">
        <ele>2374</ele>
        <time>2019-11-24T11:24:09Z</time>
      </trkpt>
      <trkpt lat="46.00366" lon="6.73453">
        <ele>2372</ele>
        <time>2019-11-24T11:28:48Z</time>
      </trkpt>
      <trkpt lat="46.00362" lon="6.73445">
        <ele>2371</ele>
        <time>2019-11-24T11:28:51Z</time>
      </trkpt>
      <trkpt lat="46.0035" lon="6.7342">
        <ele>2366</ele>
        <time>2019-11-24T11:28:57Z</time>
      </trkpt>
      <trkpt lat="46.00333" lon="6.734">
        <ele>2362</ele>
        <time>2019-11-24T11:29:03Z</time>
      </trkpt>
      <trkpt lat="46.00333" lon="6.73392">
        <ele>2360</ele>
        <time>2019-11-24T11:29:05Z</time>
      </trkpt>
      <trkpt lat="46.00341" lon="6.73389">
        <ele>2360</ele>
        <time>2019-11-24T11:29:07Z</time>
      </trkpt>
      <trkpt lat="46.00347" lon="6.73394">
        <ele>2359</ele>
        <time>2019-11-24T11:29:09Z</time>
      </trkpt>
      <trkpt lat="46.00353" lon="6.73397">
        <ele>2358</ele>
        <time>2019-11-24T11:29:11Z</time>
      </trkpt>
      <trkpt lat="46.00357" lon="6.73392">
        <ele>2356</ele>
        <time>2019-11-24T11:29:15Z</time>
      </trkpt>
      <trkpt lat="46.00359" lon="6.73384">
        <ele>2354</ele>
        <time>2019-11-24T11:29:17Z</time>
      </trkpt>
      <trkpt lat="46.00364" lon="6.73378">
        <ele>2352</ele>
        <time>2019-11-24T11:29:19Z</time>
      </trkpt>
      <trkpt lat="46.0036" lon="6.73359">
        <ele>2348</ele>
        <time>2019-11-24T11:29:23Z</time>
      </trkpt>
      <trkpt lat="46.00365" lon="6.73357">
        <ele>2347</ele>
        <time>2019-11-24T11:29:28Z</time>
      </trkpt>
      <trkpt lat="46.00371" lon="6.73358">
        <ele>2345</ele>
        <time>2019-11-24T11:29:30Z</time>
      </trkpt>
      <trkpt lat="46.00377" lon="6.73359">
        <ele>2345</ele>
        <time>2019-11-24T11:29:35Z</time>
      </trkpt>
      <trkpt lat="46.00375" lon="6.73349">
        <ele>2343</ele>
        <time>2019-11-24T11:30:37Z</time>
      </trkpt>
      <trkpt lat="46.00339" lon="6.73326">
        <ele>2337</ele>
        <time>2019-11-24T11:30:49Z</time>
      </trkpt>
      <trkpt lat="46.00334" lon="6.73321">
        <ele>2335</ele>
        <time>2019-11-24T11:30:51Z</time>
      </trkpt>
      <trkpt lat="46.00328" lon="6.73316">
        <ele>2333</ele>
        <time>2019-11-24T11:30:53Z</time>
      </trkpt>
      <trkpt lat="46.00313" lon="6.73312">
        <ele>2330</ele>
        <time>2019-11-24T11:30:57Z</time>
      </trkpt>
      <trkpt lat="46.00306" lon="6.73311">
        <ele>2330</ele>
        <time>2019-11-24T11:30:59Z</time>
      </trkpt>
      <trkpt lat="46.00292" lon="6.73305">
        <ele>2327</ele>
        <time>2019-11-24T11:31:03Z</time>
      </trkpt>
      <trkpt lat="46.00274" lon="6.73283">
        <ele>2323</ele>
        <time>2019-11-24T11:31:09Z</time>
      </trkpt>
      <trkpt lat="46.00272" lon="6.73268">
        <ele>2319</ele>
        <time>2019-11-24T11:31:11Z</time>
      </trkpt>
      <trkpt lat="46.00269" lon="6.73262">
        <ele>2317</ele>
        <time>2019-11-24T11:31:12Z</time>
      </trkpt>
      <trkpt lat="46.00266" lon="6.73257">
        <ele>2318</ele>
        <time>2019-11-24T11:31:13Z</time>
      </trkpt>
      <trkpt lat="46.0026" lon="6.73248">
        <ele>2316</ele>
        <time>2019-11-24T11:31:15Z</time>
      </trkpt>
      <trkpt lat="46.00241" lon="6.73208">
        <ele>2308</ele>
        <time>2019-11-24T11:31:25Z</time>
      </trkpt>
      <trkpt lat="46.00241" lon="6.732">
        <ele>2306</ele>
        <time>2019-11-24T11:31:27Z</time>
      </trkpt>
      <trkpt lat="46.00244" lon="6.73195">
        <ele>2305</ele>
        <time>2019-11-24T11:31:29Z</time>
      </trkpt>
      <trkpt lat="46.00248" lon="6.73198">
        <ele>2306</ele>
        <time>2019-11-24T11:31:37Z</time>
      </trkpt>
      <trkpt lat="46.00245" lon="6.73188">
        <ele>2303</ele>
        <time>2019-11-24T11:32:03Z</time>
      </trkpt>
      <trkpt lat="46.00245" lon="6.73163">
        <ele>2299</ele>
        <time>2019-11-24T11:32:06Z</time>
      </trkpt>
      <trkpt lat="46.00241" lon="6.73152">
        <ele>2296</ele>
        <time>2019-11-24T11:32:08Z</time>
      </trkpt>
      <trkpt lat="46.00238" lon="6.73143">
        <ele>2297</ele>
        <time>2019-11-24T11:32:10Z</time>
      </trkpt>
      <trkpt lat="46.00235" lon="6.73137">
        <ele>2296</ele>
        <time>2019-11-24T11:32:11Z</time>
      </trkpt>
      <trkpt lat="46.00234" lon="6.73131">
        <ele>2294</ele>
        <time>2019-11-24T11:32:12Z</time>
      </trkpt>
      <trkpt lat="46.0023" lon="6.73122">
        <ele>2293</ele>
        <time>2019-11-24T11:32:14Z</time>
      </trkpt>
      <trkpt lat="46.00228" lon="6.73115">
        <ele>2290</ele>
        <time>2019-11-24T11:32:15Z</time>
      </trkpt>
      <trkpt lat="46.00223" lon="6.73109">
        <ele>2290</ele>
        <time>2019-11-24T11:32:17Z</time>
      </trkpt>
      <trkpt lat="46.00221" lon="6.73101">
        <ele>2288</ele>
        <time>2019-11-24T11:32:18Z</time>
      </trkpt>
      <trkpt lat="46.00217" lon="6.73095">
        <ele>2287</ele>
        <time>2019-11-24T11:32:19Z</time>
      </trkpt>
      <trkpt lat="46.00211" lon="6.73065">
        <ele>2283</ele>
        <time>2019-11-24T11:32:24Z</time>
      </trkpt>
      <trkpt lat="46.00212" lon="6.73059">
        <ele>2280</ele>
        <time>2019-11-24T11:32:25Z</time>
      </trkpt>
      <trkpt lat="46.00216" lon="6.73053">
        <ele>2280</ele>
        <time>2019-11-24T11:32:26Z</time>
      </trkpt>
      <trkpt lat="46.00218" lon="6.73037">
        <ele>2278</ele>
        <time>2019-11-24T11:32:29Z</time>
      </trkpt>
      <trkpt lat="46.00217" lon="6.73018">
        <ele>2275</ele>
        <time>2019-11-24T11:32:32Z</time>
      </trkpt>
      <trkpt lat="46.00219" lon="6.72997">
        <ele>2273</ele>
        <time>2019-11-24T11:32:35Z</time>
      </trkpt>
      <trkpt lat="46.00217" lon="6.72989">
        <ele>2271</ele>
        <time>2019-11-24T11:32:36Z</time>
      </trkpt>
      <trkpt lat="46.00219" lon="6.72979">
        <ele>2269</ele>
        <time>2019-11-24T11:32:38Z</time>
      </trkpt>
      <trkpt lat="46.00213" lon="6.72979">
        <ele>2273</ele>
        <time>2019-11-24T11:33:10Z</time>
      </trkpt>
      <trkpt lat="46.00208" lon="6.72975">
        <ele>2273</ele>
        <time>2019-11-24T11:33:13Z</time>
      </trkpt>
      <trkpt lat="46.00203" lon="6.72971">
        <ele>2271</ele>
        <time>2019-11-24T11:33:16Z</time>
      </trkpt>
      <trkpt lat="46.00198" lon="6.72969">
        <ele>2272</ele>
        <time>2019-11-24T11:33:19Z</time>
      </trkpt>
      <trkpt lat="46.00193" lon="6.72968">
        <ele>2271</ele>
        <time>2019-11-24T11:33:22Z</time>
      </trkpt>
      <trkpt lat="46.00189" lon="6.72967">
        <ele>2271</ele>
        <time>2019-11-24T11:33:25Z</time>
      </trkpt>
      <trkpt lat="46.00184" lon="6.72967">
        <ele>2272</ele>
        <time>2019-11-24T11:33:29Z</time>
      </trkpt>
      <trkpt lat="46.00172" lon="6.72968">
        <ele>2270</ele>
        <time>2019-11-24T11:33:36Z</time>
      </trkpt>
      <trkpt lat="46.00094" lon="6.73009">
        <ele>2256</ele>
        <time>2019-11-24T11:34:01Z</time>
      </trkpt>
      <trkpt lat="46.00085" lon="6.7301">
        <ele>2255</ele>
        <time>2019-11-24T11:34:03Z</time>
      </trkpt>
      <trkpt lat="46.00078" lon="6.73011">
        <ele>2254</ele>
        <time>2019-11-24T11:34:05Z</time>
      </trkpt>
      <trkpt lat="46.00061" lon="6.7301">
        <ele>2252</ele>
        <time>2019-11-24T11:34:09Z</time>
      </trkpt>
      <trkpt lat="46.00042" lon="6.72994">
        <ele>2248</ele>
        <time>2019-11-24T11:34:14Z</time>
      </trkpt>
      <trkpt lat="46.00036" lon="6.72989">
        <ele>2248</ele>
        <time>2019-11-24T11:34:16Z</time>
      </trkpt>
      <trkpt lat="46.00031" lon="6.72984">
        <ele>2247</ele>
        <time>2019-11-24T11:34:18Z</time>
      </trkpt>
      <trkpt lat="46.00028" lon="6.72975">
        <ele>2246</ele>
        <time>2019-11-24T11:34:20Z</time>
      </trkpt>
      <trkpt lat="46.00027" lon="6.72963">
        <ele>2246</ele>
        <time>2019-11-24T11:34:22Z</time>
      </trkpt>
      <trkpt lat="46.00025" lon="6.72937">
        <ele>2244</ele>
        <time>2019-11-24T11:34:26Z</time>
      </trkpt>
      <trkpt lat="46.00027" lon="6.72925">
        <ele>2244</ele>
        <time>2019-11-24T11:34:28Z</time>
      </trkpt>
      <trkpt lat="46.00026" lon="6.72877">
        <ele>2241</ele>
        <time>2019-11-24T11:34:42Z</time>
      </trkpt>
      <trkpt lat="46.0003" lon="6.72881">
        <ele>2242</ele>
        <time>2019-11-24T11:35:13Z</time>
      </trkpt>
      <trkpt lat="46.00036" lon="6.72882">
        <ele>2239</ele>
        <time>2019-11-24T11:35:53Z</time>
      </trkpt>
      <trkpt lat="46.00047" lon="6.72868">
        <ele>2235</ele>
        <time>2019-11-24T11:35:57Z</time>
      </trkpt>
      <trkpt lat="46.0005" lon="6.72863">
        <ele>2234</ele>
        <time>2019-11-24T11:35:58Z</time>
      </trkpt>
      <trkpt lat="46.00052" lon="6.72851">
        <ele>2233</ele>
        <time>2019-11-24T11:36:00Z</time>
      </trkpt>
      <trkpt lat="46.00061" lon="6.72835">
        <ele>2229</ele>
        <time>2019-11-24T11:36:04Z</time>
      </trkpt>
      <trkpt lat="46.00069" lon="6.72803">
        <ele>2223</ele>
        <time>2019-11-24T11:36:10Z</time>
      </trkpt>
      <trkpt lat="46.00084" lon="6.72773">
        <ele>2216</ele>
        <time>2019-11-24T11:36:18Z</time>
      </trkpt>
      <trkpt lat="46.00089" lon="6.72769">
        <ele>2214</ele>
        <time>2019-11-24T11:36:20Z</time>
      </trkpt>
      <trkpt lat="46.0009" lon="6.7276">
        <ele>2212</ele>
        <time>2019-11-24T11:36:22Z</time>
      </trkpt>
      <trkpt lat="46.00092" lon="6.72752">
        <ele>2211</ele>
        <time>2019-11-24T11:36:24Z</time>
      </trkpt>
      <trkpt lat="46.00095" lon="6.72748">
        <ele>2210</ele>
        <time>2019-11-24T11:36:26Z</time>
      </trkpt>
      <trkpt lat="46.00097" lon="6.72737">
        <ele>2208</ele>
        <time>2019-11-24T11:37:52Z</time>
      </trkpt>
      <trkpt lat="46.001" lon="6.72726">
        <ele>2207</ele>
        <time>2019-11-24T11:37:57Z</time>
      </trkpt>
      <trkpt lat="46.00097" lon="6.72719">
        <ele>2206</ele>
        <time>2019-11-24T11:37:59Z</time>
      </trkpt>
      <trkpt lat="46.00097" lon="6.72712">
        <ele>2205</ele>
        <time>2019-11-24T11:38:01Z</time>
      </trkpt>
      <trkpt lat="46.00096" lon="6.7268">
        <ele>2196</ele>
        <time>2019-11-24T11:38:09Z</time>
      </trkpt>
      <trkpt lat="46.00098" lon="6.7267">
        <ele>2194</ele>
        <time>2019-11-24T11:38:11Z</time>
      </trkpt>
      <trkpt lat="46.00099" lon="6.72663">
        <ele>2193</ele>
        <time>2019-11-24T11:38:13Z</time>
      </trkpt>
      <trkpt lat="46.00104" lon="6.72636">
        <ele>2186</ele>
        <time>2019-11-24T11:38:19Z</time>
      </trkpt>
      <trkpt lat="46.00108" lon="6.72628">
        <ele>2184</ele>
        <time>2019-11-24T11:38:21Z</time>
      </trkpt>
      <trkpt lat="46.00111" lon="6.7262">
        <ele>2182</ele>
        <time>2019-11-24T11:38:23Z</time>
      </trkpt>
      <trkpt lat="46.00109" lon="6.7261">
        <ele>2180</ele>
        <time>2019-11-24T11:38:24Z</time>
      </trkpt>
      <trkpt lat="46.00107" lon="6.72581">
        <ele>2177</ele>
        <time>2019-11-24T11:38:28Z</time>
      </trkpt>
      <trkpt lat="46.00109" lon="6.72569">
        <ele>2175</ele>
        <time>2019-11-24T11:38:30Z</time>
      </trkpt>
      <trkpt lat="46.00108" lon="6.72562">
        <ele>2174</ele>
        <time>2019-11-24T11:38:31Z</time>
      </trkpt>
      <trkpt lat="46.00112" lon="6.72551">
        <ele>2171</ele>
        <time>2019-11-24T11:38:33Z</time>
      </trkpt>
      <trkpt lat="46.00111" lon="6.72544">
        <ele>2171</ele>
        <time>2019-11-24T11:38:34Z</time>
      </trkpt>
      <trkpt lat="46.00109" lon="6.72538">
        <ele>2170</ele>
        <time>2019-11-24T11:38:35Z</time>
      </trkpt>
      <trkpt lat="46.00108" lon="6.7252">
        <ele>2165</ele>
        <time>2019-11-24T11:38:39Z</time>
      </trkpt>
      <trkpt lat="46.00116" lon="6.72493">
        <ele>2158</ele>
        <time>2019-11-24T11:38:45Z</time>
      </trkpt>
      <trkpt lat="46.00119" lon="6.72487">
        <ele>2158</ele>
        <time>2019-11-24T11:38:46Z</time>
      </trkpt>
      <trkpt lat="46.00116" lon="6.72479">
        <ele>2155</ele>
        <time>2019-11-24T11:38:47Z</time>
      </trkpt>
      <trkpt lat="46.00114" lon="6.72472">
        <ele>2154</ele>
        <time>2019-11-24T11:38:48Z</time>
      </trkpt>
      <trkpt lat="46.00119" lon="6.72464">
        <ele>2152</ele>
        <time>2019-11-24T11:38:50Z</time>
      </trkpt>
      <trkpt lat="46.00118" lon="6.72455">
        <ele>2151</ele>
        <time>2019-11-24T11:38:51Z</time>
      </trkpt>
      <trkpt lat="46.00117" lon="6.72449">
        <ele>2149</ele>
        <time>2019-11-24T11:38:52Z</time>
      </trkpt>
      <trkpt lat="46.00121" lon="6.72437">
        <ele>2147</ele>
        <time>2019-11-24T11:38:54Z</time>
      </trkpt>
      <trkpt lat="46.0012" lon="6.72429">
        <ele>2146</ele>
        <time>2019-11-24T11:38:55Z</time>
      </trkpt>
      <trkpt lat="46.00122" lon="6.72417">
        <ele>2144</ele>
        <time>2019-11-24T11:38:57Z</time>
      </trkpt>
      <trkpt lat="46.00124" lon="6.72394">
        <ele>2140</ele>
        <time>2019-11-24T11:39:01Z</time>
      </trkpt>
      <trkpt lat="46.0012" lon="6.72389">
        <ele>2139</ele>
        <time>2019-11-24T11:39:04Z</time>
      </trkpt>
      <trkpt lat="46.00118" lon="6.72381">
        <ele>2139</ele>
        <time>2019-11-24T11:40:13Z</time>
      </trkpt>
      <trkpt lat="46.00116" lon="6.72375">
        <ele>2138</ele>
        <time>2019-11-24T11:40:15Z</time>
      </trkpt>
      <trkpt lat="46.00117" lon="6.7236">
        <ele>2136</ele>
        <time>2019-11-24T11:40:17Z</time>
      </trkpt>
      <trkpt lat="46.00117" lon="6.72354">
        <ele>2134</ele>
        <time>2019-11-24T11:40:18Z</time>
      </trkpt>
      <trkpt lat="46.00118" lon="6.7234">
        <ele>2132</ele>
        <time>2019-11-24T11:40:20Z</time>
      </trkpt>
      <trkpt lat="46.00116" lon="6.72334">
        <ele>2132</ele>
        <time>2019-11-24T11:40:21Z</time>
      </trkpt>
      <trkpt lat="46.00116" lon="6.72327">
        <ele>2131</ele>
        <time>2019-11-24T11:40:22Z</time>
      </trkpt>
      <trkpt lat="46.00114" lon="6.7232">
        <ele>2129</ele>
        <time>2019-11-24T11:40:23Z</time>
      </trkpt>
      <trkpt lat="46.00118" lon="6.7231">
        <ele>2127</ele>
        <time>2019-11-24T11:40:25Z</time>
      </trkpt>
      <trkpt lat="46.00116" lon="6.72297">
        <ele>2123</ele>
        <time>2019-11-24T11:40:27Z</time>
      </trkpt>
      <trkpt lat="46.00118" lon="6.72288">
        <ele>2123</ele>
        <time>2019-11-24T11:40:28Z</time>
      </trkpt>
      <trkpt lat="46.00118" lon="6.7228">
        <ele>2121</ele>
        <time>2019-11-24T11:40:29Z</time>
      </trkpt>
      <trkpt lat="46.00119" lon="6.72272">
        <ele>2121</ele>
        <time>2019-11-24T11:40:30Z</time>
      </trkpt>
      <trkpt lat="46.0012" lon="6.72264">
        <ele>2121</ele>
        <time>2019-11-24T11:40:31Z</time>
      </trkpt>
      <trkpt lat="46.00119" lon="6.72257">
        <ele>2119</ele>
        <time>2019-11-24T11:40:32Z</time>
      </trkpt>
      <trkpt lat="46.00118" lon="6.7225">
        <ele>2120</ele>
        <time>2019-11-24T11:40:33Z</time>
      </trkpt>
      <trkpt lat="46.00116" lon="6.72238">
        <ele>2120</ele>
        <time>2019-11-24T11:40:35Z</time>
      </trkpt>
      <trkpt lat="46.00117" lon="6.72225">
        <ele>2119</ele>
        <time>2019-11-24T11:40:37Z</time>
      </trkpt>
      <trkpt lat="46.00118" lon="6.72219">
        <ele>2117</ele>
        <time>2019-11-24T11:40:38Z</time>
      </trkpt>
      <trkpt lat="46.00118" lon="6.72212">
        <ele>2117</ele>
        <time>2019-11-24T11:40:39Z</time>
      </trkpt>
      <trkpt lat="46.00121" lon="6.722">
        <ele>2115</ele>
        <time>2019-11-24T11:40:41Z</time>
      </trkpt>
      <trkpt lat="46.00125" lon="6.72187">
        <ele>2115</ele>
        <time>2019-11-24T11:40:43Z</time>
      </trkpt>
      <trkpt lat="46.0013" lon="6.72173">
        <ele>2113</ele>
        <time>2019-11-24T11:40:46Z</time>
      </trkpt>
      <trkpt lat="46.00129" lon="6.72164">
        <ele>2112</ele>
        <time>2019-11-24T11:40:48Z</time>
      </trkpt>
      <trkpt lat="46.00134" lon="6.72165">
        <ele>2111</ele>
        <time>2019-11-24T11:40:49Z</time>
      </trkpt>
      <trkpt lat="46.00136" lon="6.72157">
        <ele>2108</ele>
        <time>2019-11-24T11:40:52Z</time>
      </trkpt>
      <trkpt lat="46.00136" lon="6.72149">
        <ele>2105</ele>
        <time>2019-11-24T11:40:54Z</time>
      </trkpt>
      <trkpt lat="46.00152" lon="6.72116">
        <ele>2095</ele>
        <time>2019-11-24T11:41:00Z</time>
      </trkpt>
      <trkpt lat="46.00147" lon="6.72106">
        <ele>2093</ele>
        <time>2019-11-24T11:41:02Z</time>
      </trkpt>
      <trkpt lat="46.00148" lon="6.72098">
        <ele>2092</ele>
        <time>2019-11-24T11:41:03Z</time>
      </trkpt>
      <trkpt lat="46.00155" lon="6.72098">
        <ele>2092</ele>
        <time>2019-11-24T11:41:04Z</time>
      </trkpt>
      <trkpt lat="46.00155" lon="6.72089">
        <ele>2088</ele>
        <time>2019-11-24T11:41:06Z</time>
      </trkpt>
      <trkpt lat="46.00152" lon="6.72082">
        <ele>2087</ele>
        <time>2019-11-24T11:41:07Z</time>
      </trkpt>
      <trkpt lat="46.00151" lon="6.72074">
        <ele>2085</ele>
        <time>2019-11-24T11:41:08Z</time>
      </trkpt>
      <trkpt lat="46.00144" lon="6.72055">
        <ele>2083</ele>
        <time>2019-11-24T11:41:11Z</time>
      </trkpt>
      <trkpt lat="46.00141" lon="6.72049">
        <ele>2083</ele>
        <time>2019-11-24T11:41:12Z</time>
      </trkpt>
      <trkpt lat="46.00138" lon="6.72043">
        <ele>2081</ele>
        <time>2019-11-24T11:41:13Z</time>
      </trkpt>
      <trkpt lat="46.00136" lon="6.72036">
        <ele>2082</ele>
        <time>2019-11-24T11:41:14Z</time>
      </trkpt>
      <trkpt lat="46.00137" lon="6.72013">
        <ele>2077</ele>
        <time>2019-11-24T11:41:18Z</time>
      </trkpt>
      <trkpt lat="46.00136" lon="6.72001">
        <ele>2075</ele>
        <time>2019-11-24T11:41:20Z</time>
      </trkpt>
      <trkpt lat="46.00145" lon="6.71986">
        <ele>2069</ele>
        <time>2019-11-24T11:41:24Z</time>
      </trkpt>
      <trkpt lat="46.00148" lon="6.71978">
        <ele>2067</ele>
        <time>2019-11-24T11:41:26Z</time>
      </trkpt>
      <trkpt lat="46.00155" lon="6.71969">
        <ele>2067</ele>
        <time>2019-11-24T11:41:28Z</time>
      </trkpt>
      <trkpt lat="46.00165" lon="6.71958">
        <ele>2064</ele>
        <time>2019-11-24T11:41:32Z</time>
      </trkpt>
      <trkpt lat="46.00172" lon="6.71953">
        <ele>2060</ele>
        <time>2019-11-24T11:41:34Z</time>
      </trkpt>
      <trkpt lat="46.00171" lon="6.71936">
        <ele>2057</ele>
        <time>2019-11-24T11:41:36Z</time>
      </trkpt>
      <trkpt lat="46.00172" lon="6.71929">
        <ele>2057</ele>
        <time>2019-11-24T11:41:37Z</time>
      </trkpt>
      <trkpt lat="46.00174" lon="6.71914">
        <ele>2054</ele>
        <time>2019-11-24T11:41:39Z</time>
      </trkpt>
      <trkpt lat="46.00176" lon="6.71908">
        <ele>2054</ele>
        <time>2019-11-24T11:41:40Z</time>
      </trkpt>
      <trkpt lat="46.00178" lon="6.71899">
        <ele>2052</ele>
        <time>2019-11-24T11:41:41Z</time>
      </trkpt>
      <trkpt lat="46.00181" lon="6.71892">
        <ele>2053</ele>
        <time>2019-11-24T11:41:42Z</time>
      </trkpt>
      <trkpt lat="46.00185" lon="6.71888">
        <ele>2053</ele>
        <time>2019-11-24T11:41:44Z</time>
      </trkpt>
      <trkpt lat="46.00189" lon="6.71884">
        <ele>2053</ele>
        <time>2019-11-24T11:41:47Z</time>
      </trkpt>
      <trkpt lat="46.0019" lon="6.71876">
        <ele>2052</ele>
        <time>2019-11-24T11:42:07Z</time>
      </trkpt>
      <trkpt lat="46.00196" lon="6.71868">
        <ele>2050</ele>
        <time>2019-11-24T11:42:58Z</time>
      </trkpt>
      <trkpt lat="46.00205" lon="6.71852">
        <ele>2047</ele>
        <time>2019-11-24T11:43:02Z</time>
      </trkpt>
      <trkpt lat="46.00207" lon="6.71818">
        <ele>2037</ele>
        <time>2019-11-24T11:43:10Z</time>
      </trkpt>
      <trkpt lat="46.00204" lon="6.71809">
        <ele>2036</ele>
        <time>2019-11-24T11:43:11Z</time>
      </trkpt>
      <trkpt lat="46.00208" lon="6.71803">
        <ele>2034</ele>
        <time>2019-11-24T11:43:12Z</time>
      </trkpt>
      <trkpt lat="46.0021" lon="6.71769">
        <ele>2027</ele>
        <time>2019-11-24T11:43:16Z</time>
      </trkpt>
      <trkpt lat="46.00212" lon="6.71762">
        <ele>2027</ele>
        <time>2019-11-24T11:43:17Z</time>
      </trkpt>
      <trkpt lat="46.00213" lon="6.71754">
        <ele>2024</ele>
        <time>2019-11-24T11:43:18Z</time>
      </trkpt>
      <trkpt lat="46.00211" lon="6.71744">
        <ele>2023</ele>
        <time>2019-11-24T11:43:19Z</time>
      </trkpt>
      <trkpt lat="46.00212" lon="6.71735">
        <ele>2021</ele>
        <time>2019-11-24T11:43:20Z</time>
      </trkpt>
      <trkpt lat="46.00213" lon="6.71728">
        <ele>2019</ele>
        <time>2019-11-24T11:43:21Z</time>
      </trkpt>
      <trkpt lat="46.00213" lon="6.71718">
        <ele>2018</ele>
        <time>2019-11-24T11:43:22Z</time>
      </trkpt>
      <trkpt lat="46.00215" lon="6.71704">
        <ele>2013</ele>
        <time>2019-11-24T11:43:24Z</time>
      </trkpt>
      <trkpt lat="46.00206" lon="6.71676">
        <ele>2010</ele>
        <time>2019-11-24T11:43:27Z</time>
      </trkpt>
      <trkpt lat="46.00209" lon="6.71668">
        <ele>2010</ele>
        <time>2019-11-24T11:43:28Z</time>
      </trkpt>
      <trkpt lat="46.0021" lon="6.71642">
        <ele>2005</ele>
        <time>2019-11-24T11:43:32Z</time>
      </trkpt>
      <trkpt lat="46.00213" lon="6.71637">
        <ele>2004</ele>
        <time>2019-11-24T11:43:33Z</time>
      </trkpt>
      <trkpt lat="46.00217" lon="6.71622">
        <ele>2001</ele>
        <time>2019-11-24T11:43:35Z</time>
      </trkpt>
      <trkpt lat="46.00221" lon="6.71617">
        <ele>2000</ele>
        <time>2019-11-24T11:43:36Z</time>
      </trkpt>
      <trkpt lat="46.00222" lon="6.71602">
        <ele>1997</ele>
        <time>2019-11-24T11:43:38Z</time>
      </trkpt>
      <trkpt lat="46.00233" lon="6.71589">
        <ele>1993</ele>
        <time>2019-11-24T11:43:41Z</time>
      </trkpt>
      <trkpt lat="46.00237" lon="6.71574">
        <ele>1989</ele>
        <time>2019-11-24T11:43:43Z</time>
      </trkpt>
      <trkpt lat="46.00235" lon="6.71565">
        <ele>1989</ele>
        <time>2019-11-24T11:43:44Z</time>
      </trkpt>
      <trkpt lat="46.00233" lon="6.71554">
        <ele>1986</ele>
        <time>2019-11-24T11:43:45Z</time>
      </trkpt>
      <trkpt lat="46.00231" lon="6.71547">
        <ele>1987</ele>
        <time>2019-11-24T11:43:46Z</time>
      </trkpt>
      <trkpt lat="46.00228" lon="6.71539">
        <ele>1986</ele>
        <time>2019-11-24T11:43:49Z</time>
      </trkpt>
      <trkpt lat="46.00225" lon="6.71533">
        <ele>1986</ele>
        <time>2019-11-24T11:43:53Z</time>
      </trkpt>
      <trkpt lat="46.00226" lon="6.71523">
        <ele>1983</ele>
        <time>2019-11-24T11:44:14Z</time>
      </trkpt>
      <trkpt lat="46.00231" lon="6.71517">
        <ele>1981</ele>
        <time>2019-11-24T11:44:16Z</time>
      </trkpt>
      <trkpt lat="46.00232" lon="6.71513">
        <ele>1981</ele>
        <time>2019-11-24T11:44:19Z</time>
      </trkpt>
      <trkpt lat="46.00226" lon="6.71505">
        <ele>1978</ele>
        <time>2019-11-24T11:45:05Z</time>
      </trkpt>
      <trkpt lat="46.0023" lon="6.71489">
        <ele>1976</ele>
        <time>2019-11-24T11:45:07Z</time>
      </trkpt>
      <trkpt lat="46.00229" lon="6.71481">
        <ele>1974</ele>
        <time>2019-11-24T11:45:08Z</time>
      </trkpt>
      <trkpt lat="46.0023" lon="6.71474">
        <ele>1973</ele>
        <time>2019-11-24T11:45:09Z</time>
      </trkpt>
      <trkpt lat="46.0023" lon="6.71462">
        <ele>1971</ele>
        <time>2019-11-24T11:45:11Z</time>
      </trkpt>
      <trkpt lat="46.00232" lon="6.71456">
        <ele>1969</ele>
        <time>2019-11-24T11:45:12Z</time>
      </trkpt>
      <trkpt lat="46.00232" lon="6.71444">
        <ele>1965</ele>
        <time>2019-11-24T11:45:14Z</time>
      </trkpt>
      <trkpt lat="46.00235" lon="6.71438">
        <ele>1966</ele>
        <time>2019-11-24T11:45:15Z</time>
      </trkpt>
      <trkpt lat="46.00232" lon="6.71431">
        <ele>1962</ele>
        <time>2019-11-24T11:45:16Z</time>
      </trkpt>
      <trkpt lat="46.00232" lon="6.71424">
        <ele>1962</ele>
        <time>2019-11-24T11:45:17Z</time>
      </trkpt>
      <trkpt lat="46.00233" lon="6.7141">
        <ele>1958</ele>
        <time>2019-11-24T11:45:19Z</time>
      </trkpt>
      <trkpt lat="46.00237" lon="6.71406">
        <ele>1959</ele>
        <time>2019-11-24T11:45:20Z</time>
      </trkpt>
      <trkpt lat="46.00239" lon="6.71394">
        <ele>1956</ele>
        <time>2019-11-24T11:45:22Z</time>
      </trkpt>
      <trkpt lat="46.00246" lon="6.71368">
        <ele>1949</ele>
        <time>2019-11-24T11:45:26Z</time>
      </trkpt>
      <trkpt lat="46.0025" lon="6.71364">
        <ele>1949</ele>
        <time>2019-11-24T11:45:27Z</time>
      </trkpt>
      <trkpt lat="46.00251" lon="6.71357">
        <ele>1947</ele>
        <time>2019-11-24T11:45:28Z</time>
      </trkpt>
      <trkpt lat="46.00259" lon="6.71353">
        <ele>1944</ele>
        <time>2019-11-24T11:45:30Z</time>
      </trkpt>
      <trkpt lat="46.00262" lon="6.71344">
        <ele>1940</ele>
        <time>2019-11-24T11:45:32Z</time>
      </trkpt>
      <trkpt lat="46.00269" lon="6.71336">
        <ele>1937</ele>
        <time>2019-11-24T11:45:34Z</time>
      </trkpt>
      <trkpt lat="46.00272" lon="6.71327">
        <ele>1935</ele>
        <time>2019-11-24T11:45:35Z</time>
      </trkpt>
      <trkpt lat="46.00277" lon="6.71324">
        <ele>1935</ele>
        <time>2019-11-24T11:45:36Z</time>
      </trkpt>
      <trkpt lat="46.0028" lon="6.71319">
        <ele>1931</ele>
        <time>2019-11-24T11:45:37Z</time>
      </trkpt>
      <trkpt lat="46.00282" lon="6.71312">
        <ele>1931</ele>
        <time>2019-11-24T11:45:38Z</time>
      </trkpt>
      <trkpt lat="46.00285" lon="6.71306">
        <ele>1930</ele>
        <time>2019-11-24T11:45:39Z</time>
      </trkpt>
      <trkpt lat="46.00291" lon="6.71299">
        <ele>1926</ele>
        <time>2019-11-24T11:45:40Z</time>
      </trkpt>
      <trkpt lat="46.00295" lon="6.71285">
        <ele>1925</ele>
        <time>2019-11-24T11:45:42Z</time>
      </trkpt>
      <trkpt lat="46.003" lon="6.71279">
        <ele>1922</ele>
        <time>2019-11-24T11:45:43Z</time>
      </trkpt>
      <trkpt lat="46.00302" lon="6.7127">
        <ele>1922</ele>
        <time>2019-11-24T11:45:44Z</time>
      </trkpt>
      <trkpt lat="46.00302" lon="6.71262">
        <ele>1919</ele>
        <time>2019-11-24T11:45:45Z</time>
      </trkpt>
      <trkpt lat="46.00304" lon="6.71231">
        <ele>1918</ele>
        <time>2019-11-24T11:45:51Z</time>
      </trkpt>
      <trkpt lat="46.00308" lon="6.71222">
        <ele>1917</ele>
        <time>2019-11-24T11:45:53Z</time>
      </trkpt>
      <trkpt lat="46.00316" lon="6.71217">
        <ele>1913</ele>
        <time>2019-11-24T11:45:55Z</time>
      </trkpt>
      <trkpt lat="46.00316" lon="6.71211">
        <ele>1913</ele>
        <time>2019-11-24T11:45:56Z</time>
      </trkpt>
      <trkpt lat="46.0033" lon="6.71177">
        <ele>1904</ele>
        <time>2019-11-24T11:46:04Z</time>
      </trkpt>
      <trkpt lat="46.00332" lon="6.71169">
        <ele>1902</ele>
        <time>2019-11-24T11:46:06Z</time>
      </trkpt>
      <trkpt lat="46.00335" lon="6.71169">
        <ele>1900</ele>
        <time>2019-11-24T11:46:14Z</time>
      </trkpt>
      <trkpt lat="46.00338" lon="6.71174">
        <ele>1900</ele>
        <time>2019-11-24T11:46:52Z</time>
      </trkpt>
      <trkpt lat="46.0035" lon="6.71163">
        <ele>1895</ele>
        <time>2019-11-24T11:48:12Z</time>
      </trkpt>
      <trkpt lat="46.00364" lon="6.71105">
        <ele>1878</ele>
        <time>2019-11-24T11:48:22Z</time>
      </trkpt>
      <trkpt lat="46.00363" lon="6.71093">
        <ele>1876</ele>
        <time>2019-11-24T11:48:23Z</time>
      </trkpt>
      <trkpt lat="46.00366" lon="6.71087">
        <ele>1875</ele>
        <time>2019-11-24T11:48:24Z</time>
      </trkpt>
      <trkpt lat="46.00364" lon="6.7107">
        <ele>1872</ele>
        <time>2019-11-24T11:48:26Z</time>
      </trkpt>
      <trkpt lat="46.00366" lon="6.71063">
        <ele>1869</ele>
        <time>2019-11-24T11:48:28Z</time>
      </trkpt>
      <trkpt lat="46.00382" lon="6.71062">
        <ele>1867</ele>
        <time>2019-11-24T11:48:31Z</time>
      </trkpt>
      <trkpt lat="46.0039" lon="6.71059">
        <ele>1866</ele>
        <time>2019-11-24T11:48:32Z</time>
      </trkpt>
      <trkpt lat="46.00396" lon="6.71053">
        <ele>1864</ele>
        <time>2019-11-24T11:48:33Z</time>
      </trkpt>
      <trkpt lat="46.00397" lon="6.71045">
        <ele>1863</ele>
        <time>2019-11-24T11:48:34Z</time>
      </trkpt>
      <trkpt lat="46.00397" lon="6.71037">
        <ele>1863</ele>
        <time>2019-11-24T11:48:35Z</time>
      </trkpt>
      <trkpt lat="46.00399" lon="6.71029">
        <ele>1861</ele>
        <time>2019-11-24T11:48:36Z</time>
      </trkpt>
      <trkpt lat="46.00406" lon="6.71018">
        <ele>1859</ele>
        <time>2019-11-24T11:48:38Z</time>
      </trkpt>
      <trkpt lat="46.00406" lon="6.71011">
        <ele>1858</ele>
        <time>2019-11-24T11:48:39Z</time>
      </trkpt>
      <trkpt lat="46.00407" lon="6.70992">
        <ele>1854</ele>
        <time>2019-11-24T11:48:42Z</time>
      </trkpt>
      <trkpt lat="46.00407" lon="6.70983">
        <ele>1854</ele>
        <time>2019-11-24T11:48:43Z</time>
      </trkpt>
      <trkpt lat="46.00408" lon="6.70976">
        <ele>1852</ele>
        <time>2019-11-24T11:48:44Z</time>
      </trkpt>
      <trkpt lat="46.0041" lon="6.70963">
        <ele>1851</ele>
        <time>2019-11-24T11:48:46Z</time>
      </trkpt>
      <trkpt lat="46.00412" lon="6.70958">
        <ele>1850</ele>
        <time>2019-11-24T11:48:47Z</time>
      </trkpt>
      <trkpt lat="46.00414" lon="6.70951">
        <ele>1849</ele>
        <time>2019-11-24T11:48:48Z</time>
      </trkpt>
      <trkpt lat="46.00414" lon="6.70944">
        <ele>1847</ele>
        <time>2019-11-24T11:48:49Z</time>
      </trkpt>
      <trkpt lat="46.00416" lon="6.70938">
        <ele>1847</ele>
        <time>2019-11-24T11:48:50Z</time>
      </trkpt>
      <trkpt lat="46.0042" lon="6.70925">
        <ele>1844</ele>
        <time>2019-11-24T11:48:52Z</time>
      </trkpt>
      <trkpt lat="46.00419" lon="6.70918">
        <ele>1844</ele>
        <time>2019-11-24T11:48:53Z</time>
      </trkpt>
      <trkpt lat="46.0042" lon="6.70911">
        <ele>1841</ele>
        <time>2019-11-24T11:48:54Z</time>
      </trkpt>
      <trkpt lat="46.00422" lon="6.70905">
        <ele>1842</ele>
        <time>2019-11-24T11:48:55Z</time>
      </trkpt>
      <trkpt lat="46.00421" lon="6.70892">
        <ele>1838</ele>
        <time>2019-11-24T11:48:57Z</time>
      </trkpt>
      <trkpt lat="46.00422" lon="6.70886">
        <ele>1839</ele>
        <time>2019-11-24T11:48:58Z</time>
      </trkpt>
      <trkpt lat="46.00426" lon="6.7088">
        <ele>1837</ele>
        <time>2019-11-24T11:48:59Z</time>
      </trkpt>
      <trkpt lat="46.00427" lon="6.70868">
        <ele>1836</ele>
        <time>2019-11-24T11:49:01Z</time>
      </trkpt>
      <trkpt lat="46.00427" lon="6.7086">
        <ele>1835</ele>
        <time>2019-11-24T11:49:02Z</time>
      </trkpt>
      <trkpt lat="46.00425" lon="6.70851">
        <ele>1832</ele>
        <time>2019-11-24T11:49:03Z</time>
      </trkpt>
      <trkpt lat="46.00427" lon="6.70843">
        <ele>1831</ele>
        <time>2019-11-24T11:49:04Z</time>
      </trkpt>
      <trkpt lat="46.00427" lon="6.70836">
        <ele>1831</ele>
        <time>2019-11-24T11:49:05Z</time>
      </trkpt>
      <trkpt lat="46.00425" lon="6.70828">
        <ele>1829</ele>
        <time>2019-11-24T11:49:06Z</time>
      </trkpt>
      <trkpt lat="46.00426" lon="6.7082">
        <ele>1829</ele>
        <time>2019-11-24T11:49:07Z</time>
      </trkpt>
      <trkpt lat="46.00428" lon="6.70812">
        <ele>1828</ele>
        <time>2019-11-24T11:49:08Z</time>
      </trkpt>
      <trkpt lat="46.00428" lon="6.70798">
        <ele>1825</ele>
        <time>2019-11-24T11:49:10Z</time>
      </trkpt>
      <trkpt lat="46.0043" lon="6.70787">
        <ele>1823</ele>
        <time>2019-11-24T11:49:11Z</time>
      </trkpt>
      <trkpt lat="46.00433" lon="6.70779">
        <ele>1819</ele>
        <time>2019-11-24T11:49:12Z</time>
      </trkpt>
      <trkpt lat="46.00434" lon="6.70768">
        <ele>1820</ele>
        <time>2019-11-24T11:49:13Z</time>
      </trkpt>
      <trkpt lat="46.00438" lon="6.70748">
        <ele>1816</ele>
        <time>2019-11-24T11:49:15Z</time>
      </trkpt>
      <trkpt lat="46.00438" lon="6.70741">
        <ele>1816</ele>
        <time>2019-11-24T11:49:16Z</time>
      </trkpt>
      <trkpt lat="46.00441" lon="6.7072">
        <ele>1813</ele>
        <time>2019-11-24T11:49:18Z</time>
      </trkpt>
      <trkpt lat="46.00442" lon="6.70712">
        <ele>1813</ele>
        <time>2019-11-24T11:49:19Z</time>
      </trkpt>
      <trkpt lat="46.00441" lon="6.70698">
        <ele>1810</ele>
        <time>2019-11-24T11:49:20Z</time>
      </trkpt>
      <trkpt lat="46.00434" lon="6.70685">
        <ele>1810</ele>
        <time>2019-11-24T11:49:22Z</time>
      </trkpt>
      <trkpt lat="46.00429" lon="6.70673">
        <ele>1807</ele>
        <time>2019-11-24T11:49:23Z</time>
      </trkpt>
      <trkpt lat="46.00423" lon="6.70652">
        <ele>1806</ele>
        <time>2019-11-24T11:49:25Z</time>
      </trkpt>
      <trkpt lat="46.00431" lon="6.70589">
        <ele>1799</ele>
        <time>2019-11-24T11:49:31Z</time>
      </trkpt>
      <trkpt lat="46.00432" lon="6.70583">
        <ele>1799</ele>
        <time>2019-11-24T11:49:32Z</time>
      </trkpt>
      <trkpt lat="46.00434" lon="6.70572">
        <ele>1797</ele>
        <time>2019-11-24T11:49:33Z</time>
      </trkpt>
      <trkpt lat="46.00436" lon="6.7056">
        <ele>1797</ele>
        <time>2019-11-24T11:49:34Z</time>
      </trkpt>
      <trkpt lat="46.0044" lon="6.70535">
        <ele>1794</ele>
        <time>2019-11-24T11:49:36Z</time>
      </trkpt>
      <trkpt lat="46.00441" lon="6.70525">
        <ele>1794</ele>
        <time>2019-11-24T11:49:37Z</time>
      </trkpt>
      <trkpt lat="46.00443" lon="6.70512">
        <ele>1791</ele>
        <time>2019-11-24T11:49:38Z</time>
      </trkpt>
      <trkpt lat="46.00446" lon="6.70499">
        <ele>1792</ele>
        <time>2019-11-24T11:49:39Z</time>
      </trkpt>
      <trkpt lat="46.00447" lon="6.70488">
        <ele>1791</ele>
        <time>2019-11-24T11:49:40Z</time>
      </trkpt>
      <trkpt lat="46.00449" lon="6.70476">
        <ele>1788</ele>
        <time>2019-11-24T11:49:41Z</time>
      </trkpt>
      <trkpt lat="46.00451" lon="6.70465">
        <ele>1789</ele>
        <time>2019-11-24T11:49:42Z</time>
      </trkpt>
      <trkpt lat="46.00455" lon="6.70448">
        <ele>1787</ele>
        <time>2019-11-24T11:49:44Z</time>
      </trkpt>
      <trkpt lat="46.00456" lon="6.7044">
        <ele>1787</ele>
        <time>2019-11-24T11:49:45Z</time>
      </trkpt>
      <trkpt lat="46.00458" lon="6.70431">
        <ele>1786</ele>
        <time>2019-11-24T11:49:46Z</time>
      </trkpt>
      <trkpt lat="46.0046" lon="6.70423">
        <ele>1786</ele>
        <time>2019-11-24T11:49:47Z</time>
      </trkpt>
      <trkpt lat="46.00463" lon="6.70407">
        <ele>1784</ele>
        <time>2019-11-24T11:49:49Z</time>
      </trkpt>
      <trkpt lat="46.00466" lon="6.70397">
        <ele>1784</ele>
        <time>2019-11-24T11:49:51Z</time>
      </trkpt>
      <trkpt lat="46.00468" lon="6.70387">
        <ele>1780</ele>
        <time>2019-11-24T11:51:53Z</time>
      </trkpt>
      <trkpt lat="46.00471" lon="6.70376">
        <ele>1780</ele>
        <time>2019-11-24T11:51:54Z</time>
      </trkpt>
      <trkpt lat="46.00473" lon="6.70368">
        <ele>1779</ele>
        <time>2019-11-24T11:51:55Z</time>
      </trkpt>
      <trkpt lat="46.00474" lon="6.70362">
        <ele>1777</ele>
        <time>2019-11-24T11:51:56Z</time>
      </trkpt>
      <trkpt lat="46.00495" lon="6.70271">
        <ele>1764</ele>
        <time>2019-11-24T11:52:11Z</time>
      </trkpt>
      <trkpt lat="46.00486" lon="6.70267">
        <ele>1763</ele>
        <time>2019-11-24T11:52:18Z</time>
      </trkpt>
      <trkpt lat="46.0048" lon="6.70266">
        <ele>1762</ele>
        <time>2019-11-24T11:52:20Z</time>
      </trkpt>
      <trkpt lat="46.00475" lon="6.70265">
        <ele>1761</ele>
        <time>2019-11-24T11:52:21Z</time>
      </trkpt>
      <trkpt lat="46.00468" lon="6.70264">
        <ele>1760</ele>
        <time>2019-11-24T11:52:22Z</time>
      </trkpt>
      <trkpt lat="46.00464" lon="6.70262">
        <ele>1760</ele>
        <time>2019-11-24T11:52:23Z</time>
      </trkpt>
      <trkpt lat="46.00464" lon="6.70252">
        <ele>1759</ele>
        <time>2019-11-24T11:52:25Z</time>
      </trkpt>
      <trkpt lat="46.00468" lon="6.70248">
        <ele>1758</ele>
        <time>2019-11-24T11:52:27Z</time>
      </trkpt>
      <trkpt lat="46.00469" lon="6.7024">
        <ele>1758</ele>
        <time>2019-11-24T11:52:29Z</time>
      </trkpt>
      <trkpt lat="46.00473" lon="6.70235">
        <ele>1756</ele>
        <time>2019-11-24T11:52:31Z</time>
      </trkpt>
      <trkpt lat="46.00472" lon="6.70226">
        <ele>1755</ele>
        <time>2019-11-24T11:52:33Z</time>
      </trkpt>
      <trkpt lat="46.00472" lon="6.70212">
        <ele>1751</ele>
        <time>2019-11-24T11:52:38Z</time>
      </trkpt>
      <trkpt lat="46.00475" lon="6.70204">
        <ele>1749</ele>
        <time>2019-11-24T11:52:41Z</time>
      </trkpt>
      <trkpt lat="46.00476" lon="6.70196">
        <ele>1747</ele>
        <time>2019-11-24T11:52:46Z</time>
      </trkpt>
      <trkpt lat="46.00477" lon="6.70188">
        <ele>1745</ele>
        <time>2019-11-24T11:52:51Z</time>
      </trkpt>
      <trkpt lat="46.00481" lon="6.70184">
        <ele>1744</ele>
        <time>2019-11-24T11:52:53Z</time>
      </trkpt>
      <trkpt lat="46.00486" lon="6.70178">
        <ele>1743</ele>
        <time>2019-11-24T11:52:55Z</time>
      </trkpt>
      <trkpt lat="46.00487" lon="6.70171">
        <ele>1741</ele>
        <time>2019-11-24T11:52:57Z</time>
      </trkpt>
      <trkpt lat="46.0049" lon="6.70165">
        <ele>1739</ele>
        <time>2019-11-24T11:53:01Z</time>
      </trkpt>
      <trkpt lat="46.00494" lon="6.70161">
        <ele>1739</ele>
        <time>2019-11-24T11:55:32Z</time>
      </trkpt>
      <trkpt lat="46.00506" lon="6.70109">
        <ele>1728</ele>
        <time>2019-11-24T11:55:41Z</time>
      </trkpt>
      <trkpt lat="46.00506" lon="6.70096">
        <ele>1726</ele>
        <time>2019-11-24T11:55:43Z</time>
      </trkpt>
      <trkpt lat="46.00514" lon="6.70078">
        <ele>1723</ele>
        <time>2019-11-24T11:55:47Z</time>
      </trkpt>
      <trkpt lat="46.00514" lon="6.70066">
        <ele>1721</ele>
        <time>2019-11-24T11:55:49Z</time>
      </trkpt>
      <trkpt lat="46.00517" lon="6.70061">
        <ele>1720</ele>
        <time>2019-11-24T11:55:50Z</time>
      </trkpt>
      <trkpt lat="46.00516" lon="6.70054">
        <ele>1719</ele>
        <time>2019-11-24T11:55:51Z</time>
      </trkpt>
      <trkpt lat="46.00513" lon="6.70042">
        <ele>1717</ele>
        <time>2019-11-24T11:55:53Z</time>
      </trkpt>
      <trkpt lat="46.0052" lon="6.70031">
        <ele>1715</ele>
        <time>2019-11-24T11:55:55Z</time>
      </trkpt>
      <trkpt lat="46.00521" lon="6.70005">
        <ele>1712</ele>
        <time>2019-11-24T11:55:59Z</time>
      </trkpt>
      <trkpt lat="46.00527" lon="6.70001">
        <ele>1711</ele>
        <time>2019-11-24T11:56:00Z</time>
      </trkpt>
      <trkpt lat="46.00533" lon="6.69955">
        <ele>1705</ele>
        <time>2019-11-24T11:56:06Z</time>
      </trkpt>
      <trkpt lat="46.00535" lon="6.69949">
        <ele>1703</ele>
        <time>2019-11-24T11:56:07Z</time>
      </trkpt>
      <trkpt lat="46.00536" lon="6.69941">
        <ele>1703</ele>
        <time>2019-11-24T11:56:08Z</time>
      </trkpt>
      <trkpt lat="46.00538" lon="6.69934">
        <ele>1702</ele>
        <time>2019-11-24T11:56:09Z</time>
      </trkpt>
      <trkpt lat="46.00542" lon="6.69929">
        <ele>1702</ele>
        <time>2019-11-24T11:56:10Z</time>
      </trkpt>
      <trkpt lat="46.00542" lon="6.69922">
        <ele>1700</ele>
        <time>2019-11-24T11:56:11Z</time>
      </trkpt>
      <trkpt lat="46.00542" lon="6.69915">
        <ele>1700</ele>
        <time>2019-11-24T11:56:12Z</time>
      </trkpt>
      <trkpt lat="46.00546" lon="6.69909">
        <ele>1699</ele>
        <time>2019-11-24T11:56:13Z</time>
      </trkpt>
      <trkpt lat="46.00549" lon="6.69903">
        <ele>1699</ele>
        <time>2019-11-24T11:56:14Z</time>
      </trkpt>
      <trkpt lat="46.00555" lon="6.69879">
        <ele>1697</ele>
        <time>2019-11-24T11:56:17Z</time>
      </trkpt>
      <trkpt lat="46.00558" lon="6.69872">
        <ele>1697</ele>
        <time>2019-11-24T11:56:18Z</time>
      </trkpt>
      <trkpt lat="46.00561" lon="6.69866">
        <ele>1696</ele>
        <time>2019-11-24T11:56:19Z</time>
      </trkpt>
      <trkpt lat="46.00564" lon="6.6986">
        <ele>1697</ele>
        <time>2019-11-24T11:56:20Z</time>
      </trkpt>
      <trkpt lat="46.00567" lon="6.69854">
        <ele>1696</ele>
        <time>2019-11-24T11:56:21Z</time>
      </trkpt>
      <trkpt lat="46.00571" lon="6.69844">
        <ele>1696</ele>
        <time>2019-11-24T11:56:23Z</time>
      </trkpt>
      <trkpt lat="46.00574" lon="6.69838">
        <ele>1696</ele>
        <time>2019-11-24T11:56:25Z</time>
      </trkpt>
      <trkpt lat="46.00574" lon="6.6983">
        <ele>1697</ele>
        <time>2019-11-24T11:56:28Z</time>
      </trkpt>
      <trkpt lat="46.00574" lon="6.69821">
        <ele>1696</ele>
        <time>2019-11-24T11:56:33Z</time>
      </trkpt>
      <trkpt lat="46.00576" lon="6.69805">
        <ele>1694</ele>
        <time>2019-11-24T11:56:38Z</time>
      </trkpt>
      <trkpt lat="46.00583" lon="6.69775">
        <ele>1693</ele>
        <time>2019-11-24T11:56:44Z</time>
      </trkpt>
      <trkpt lat="46.00588" lon="6.69753">
        <ele>1691</ele>
        <time>2019-11-24T11:56:48Z</time>
      </trkpt>
      <trkpt lat="46.00591" lon="6.69738">
        <ele>1690</ele>
        <time>2019-11-24T11:56:50Z</time>
      </trkpt>
      <trkpt lat="46.00593" lon="6.69732">
        <ele>1688</ele>
        <time>2019-11-24T11:56:51Z</time>
      </trkpt>
      <trkpt lat="46.00595" lon="6.69724">
        <ele>1689</ele>
        <time>2019-11-24T11:56:52Z</time>
      </trkpt>
      <trkpt lat="46.00599" lon="6.69718">
        <ele>1687</ele>
        <time>2019-11-24T11:56:53Z</time>
      </trkpt>
      <trkpt lat="46.00602" lon="6.69708">
        <ele>1688</ele>
        <time>2019-11-24T11:56:54Z</time>
      </trkpt>
      <trkpt lat="46.00606" lon="6.69702">
        <ele>1686</ele>
        <time>2019-11-24T11:56:55Z</time>
      </trkpt>
      <trkpt lat="46.00608" lon="6.69695">
        <ele>1686</ele>
        <time>2019-11-24T11:56:56Z</time>
      </trkpt>
      <trkpt lat="46.00612" lon="6.69689">
        <ele>1685</ele>
        <time>2019-11-24T11:56:57Z</time>
      </trkpt>
      <trkpt lat="46.00614" lon="6.69683">
        <ele>1685</ele>
        <time>2019-11-24T11:56:58Z</time>
      </trkpt>
      <trkpt lat="46.00621" lon="6.69675">
        <ele>1684</ele>
        <time>2019-11-24T11:57:00Z</time>
      </trkpt>
      <trkpt lat="46.00623" lon="6.69665">
        <ele>1684</ele>
        <time>2019-11-24T11:57:02Z</time>
      </trkpt>
      <trkpt lat="46.00629" lon="6.69655">
        <ele>1683</ele>
        <time>2019-11-24T11:57:04Z</time>
      </trkpt>
      <trkpt lat="46.00632" lon="6.69648">
        <ele>1683</ele>
        <time>2019-11-24T11:57:05Z</time>
      </trkpt>
      <trkpt lat="46.00635" lon="6.69642">
        <ele>1682</ele>
        <time>2019-11-24T11:57:06Z</time>
      </trkpt>
      <trkpt lat="46.00643" lon="6.69647">
        <ele>1681</ele>
        <time>2019-11-24T11:57:08Z</time>
      </trkpt>
      <trkpt lat="46.00646" lon="6.69653">
        <ele>1681</ele>
        <time>2019-11-24T11:57:10Z</time>
      </trkpt>
      <trkpt lat="46.00647" lon="6.69653">
        <ele>1682</ele>
        <time>2019-11-24T11:58:09Z</time>
      </trkpt>
      <trkpt lat="46.00665" lon="6.69634">
        <ele>1681</ele>
        <time>2019-11-24T11:58:30Z</time>
      </trkpt>
      <trkpt lat="46.00668" lon="6.6963">
        <ele>1681</ele>
        <time>2019-11-24T11:58:42Z</time>
      </trkpt>
      <trkpt lat="46.0067" lon="6.69622">
        <ele>1681</ele>
        <time>2019-11-24T11:58:45Z</time>
      </trkpt>
      <trkpt lat="46.00674" lon="6.69611">
        <ele>1681</ele>
        <time>2019-11-24T11:58:55Z</time>
      </trkpt>
      <trkpt lat="46.0067" lon="6.69609">
        <ele>1677</ele>
        <time>2019-11-24T12:04:41Z</time>
      </trkpt>
      <trkpt lat="46.00673" lon="6.69603">
        <ele>1675</ele>
        <time>2019-11-24T12:09:09Z</time>
      </trkpt>
    </trkseg>
  </trk>
</gpx>